<?xml version="1.0" encoding="UTF-8" standalone="no" ?>
<gpx xmlns="http://www.topografix.com/GPX/1/1" xmlns:xsi="http://www.w3.org/2001/XMLSchema-instance" xsi:schemaLocation="http://www.topografix.com/GPX/1/1 http://www.topografix.com/GPX/1/1/gpx.xsd" version="1.1" creator="VisuGPX - https://www.visugpx.com">
  <metadata>
    <name>Annot - les Grès (GPS)</name>
    <desc><![CDATA[Gare de Annot, en passant par les Grès d'Annot: 
la Chambre du Roi, le Belvédère, Champ long, Baume Longe, Ravin de Balme Michel, Pont de Bourdou, Annot .]]></desc>
  </metadata>
  <trk>
    <name><![CDATA[1 oct. 2019]]></name>
    <cmt><![CDATA[9:36:09 AM]]></cmt>
    <desc><![CDATA[comment ...]]></desc>
    <trkseg>
      <trkpt lat="43.96348" lon="6.67234">
        <ele>707</ele>
        <time>2019-10-01T07:36:08Z</time>
      </trkpt>
      <trkpt lat="43.96348" lon="6.67235">
        <ele>706</ele>
        <time>2019-10-01T07:36:09Z</time>
      </trkpt>
      <trkpt lat="43.9637" lon="6.67225">
        <ele>698</ele>
        <time>2019-10-01T07:36:38Z</time>
      </trkpt>
      <trkpt lat="43.96375" lon="6.67224">
        <ele>694</ele>
        <time>2019-10-01T07:36:43Z</time>
      </trkpt>
      <trkpt lat="43.96395" lon="6.67211">
        <ele>712</ele>
        <time>2019-10-01T07:37:04Z</time>
      </trkpt>
      <trkpt lat="43.96405" lon="6.67204">
        <ele>702</ele>
        <time>2019-10-01T07:37:12Z</time>
      </trkpt>
      <trkpt lat="43.96408" lon="6.67198">
        <ele>706</ele>
        <time>2019-10-01T07:37:21Z</time>
      </trkpt>
      <trkpt lat="43.96413" lon="6.67192">
        <ele>715</ele>
        <time>2019-10-01T07:37:47Z</time>
      </trkpt>
      <trkpt lat="43.96425" lon="6.67195">
        <ele>695</ele>
        <time>2019-10-01T07:37:53Z</time>
      </trkpt>
      <trkpt lat="43.96434" lon="6.67194">
        <ele>696</ele>
        <time>2019-10-01T07:38:00Z</time>
      </trkpt>
      <trkpt lat="43.96446" lon="6.67188">
        <ele>696</ele>
        <time>2019-10-01T07:38:07Z</time>
      </trkpt>
      <trkpt lat="43.96452" lon="6.67186">
        <ele>696</ele>
        <time>2019-10-01T07:38:11Z</time>
      </trkpt>
      <trkpt lat="43.96471" lon="6.6718">
        <ele>696</ele>
        <time>2019-10-01T07:38:22Z</time>
      </trkpt>
      <trkpt lat="43.96482" lon="6.67184">
        <ele>714</ele>
        <time>2019-10-01T07:38:35Z</time>
      </trkpt>
      <trkpt lat="43.96492" lon="6.67202">
        <ele>717</ele>
        <time>2019-10-01T07:39:24Z</time>
      </trkpt>
      <trkpt lat="43.96486" lon="6.67207">
        <ele>719</ele>
        <time>2019-10-01T07:39:31Z</time>
      </trkpt>
      <trkpt lat="43.96481" lon="6.67209">
        <ele>714</ele>
        <time>2019-10-01T07:39:34Z</time>
      </trkpt>
      <trkpt lat="43.96473" lon="6.67213">
        <ele>716</ele>
        <time>2019-10-01T07:39:42Z</time>
      </trkpt>
      <trkpt lat="43.9646" lon="6.67219">
        <ele>711</ele>
        <time>2019-10-01T07:39:54Z</time>
      </trkpt>
      <trkpt lat="43.96451" lon="6.67219">
        <ele>706</ele>
        <time>2019-10-01T07:40:01Z</time>
      </trkpt>
      <trkpt lat="43.96445" lon="6.67222">
        <ele>707</ele>
        <time>2019-10-01T07:40:05Z</time>
      </trkpt>
      <trkpt lat="43.96439" lon="6.67229">
        <ele>711</ele>
        <time>2019-10-01T07:40:11Z</time>
      </trkpt>
      <trkpt lat="43.96434" lon="6.67237">
        <ele>718</ele>
        <time>2019-10-01T07:40:18Z</time>
      </trkpt>
      <trkpt lat="43.96427" lon="6.67239">
        <ele>728</ele>
        <time>2019-10-01T07:40:24Z</time>
      </trkpt>
      <trkpt lat="43.96422" lon="6.67247">
        <ele>723</ele>
        <time>2019-10-01T07:40:30Z</time>
      </trkpt>
      <trkpt lat="43.96416" lon="6.6725">
        <ele>718</ele>
        <time>2019-10-01T07:40:37Z</time>
      </trkpt>
      <trkpt lat="43.9641" lon="6.67252">
        <ele>716</ele>
        <time>2019-10-01T07:40:42Z</time>
      </trkpt>
      <trkpt lat="43.964" lon="6.67262">
        <ele>716</ele>
        <time>2019-10-01T07:40:53Z</time>
      </trkpt>
      <trkpt lat="43.96393" lon="6.67273">
        <ele>713</ele>
        <time>2019-10-01T07:41:01Z</time>
      </trkpt>
      <trkpt lat="43.96386" lon="6.67281">
        <ele>727</ele>
        <time>2019-10-01T07:41:08Z</time>
      </trkpt>
      <trkpt lat="43.96371" lon="6.67296">
        <ele>729</ele>
        <time>2019-10-01T07:41:23Z</time>
      </trkpt>
      <trkpt lat="43.96352" lon="6.67305">
        <ele>715</ele>
        <time>2019-10-01T07:41:43Z</time>
      </trkpt>
      <trkpt lat="43.96336" lon="6.67325">
        <ele>707</ele>
        <time>2019-10-01T07:42:02Z</time>
      </trkpt>
      <trkpt lat="43.96326" lon="6.67333">
        <ele>706</ele>
        <time>2019-10-01T07:42:11Z</time>
      </trkpt>
      <trkpt lat="43.96316" lon="6.67334">
        <ele>706</ele>
        <time>2019-10-01T07:42:18Z</time>
      </trkpt>
      <trkpt lat="43.96307" lon="6.67331">
        <ele>708</ele>
        <time>2019-10-01T07:42:24Z</time>
      </trkpt>
      <trkpt lat="43.963" lon="6.6734">
        <ele>708</ele>
        <time>2019-10-01T07:42:33Z</time>
      </trkpt>
      <trkpt lat="43.96294" lon="6.67344">
        <ele>708</ele>
        <time>2019-10-01T07:42:40Z</time>
      </trkpt>
      <trkpt lat="43.96287" lon="6.67351">
        <ele>706</ele>
        <time>2019-10-01T07:42:51Z</time>
      </trkpt>
      <trkpt lat="43.96283" lon="6.67359">
        <ele>704</ele>
        <time>2019-10-01T07:42:58Z</time>
      </trkpt>
      <trkpt lat="43.96269" lon="6.6736">
        <ele>702</ele>
        <time>2019-10-01T07:43:10Z</time>
      </trkpt>
      <trkpt lat="43.96256" lon="6.67368">
        <ele>703</ele>
        <time>2019-10-01T07:43:29Z</time>
      </trkpt>
      <trkpt lat="43.96253" lon="6.67378">
        <ele>713</ele>
        <time>2019-10-01T07:43:35Z</time>
      </trkpt>
      <trkpt lat="43.96249" lon="6.67387">
        <ele>712</ele>
        <time>2019-10-01T07:43:41Z</time>
      </trkpt>
      <trkpt lat="43.96243" lon="6.67394">
        <ele>711</ele>
        <time>2019-10-01T07:43:49Z</time>
      </trkpt>
      <trkpt lat="43.96236" lon="6.67403">
        <ele>713</ele>
        <time>2019-10-01T07:44:11Z</time>
      </trkpt>
      <trkpt lat="43.96225" lon="6.67403">
        <ele>710</ele>
        <time>2019-10-01T07:44:22Z</time>
      </trkpt>
      <trkpt lat="43.96217" lon="6.67401">
        <ele>726</ele>
        <time>2019-10-01T07:44:30Z</time>
      </trkpt>
      <trkpt lat="43.96213" lon="6.67401">
        <ele>722</ele>
        <time>2019-10-01T07:44:37Z</time>
      </trkpt>
      <trkpt lat="43.96209" lon="6.67408">
        <ele>716</ele>
        <time>2019-10-01T07:45:06Z</time>
      </trkpt>
      <trkpt lat="43.96212" lon="6.6742">
        <ele>718</ele>
        <time>2019-10-01T07:45:16Z</time>
      </trkpt>
      <trkpt lat="43.9622" lon="6.67425">
        <ele>715</ele>
        <time>2019-10-01T07:45:24Z</time>
      </trkpt>
      <trkpt lat="43.96218" lon="6.67432">
        <ele>728</ele>
        <time>2019-10-01T07:45:51Z</time>
      </trkpt>
      <trkpt lat="43.96223" lon="6.6744">
        <ele>732</ele>
        <time>2019-10-01T07:46:37Z</time>
      </trkpt>
      <trkpt lat="43.96221" lon="6.67458">
        <ele>735</ele>
        <time>2019-10-01T07:47:28Z</time>
      </trkpt>
      <trkpt lat="43.96233" lon="6.67469">
        <ele>740</ele>
        <time>2019-10-01T07:47:51Z</time>
      </trkpt>
      <trkpt lat="43.96225" lon="6.67478">
        <ele>743</ele>
        <time>2019-10-01T07:48:16Z</time>
      </trkpt>
      <trkpt lat="43.96224" lon="6.67487">
        <ele>747</ele>
        <time>2019-10-01T07:48:31Z</time>
      </trkpt>
      <trkpt lat="43.96227" lon="6.67502">
        <ele>747</ele>
        <time>2019-10-01T07:48:58Z</time>
      </trkpt>
      <trkpt lat="43.96233" lon="6.67501">
        <ele>741</ele>
        <time>2019-10-01T07:49:16Z</time>
      </trkpt>
      <trkpt lat="43.96239" lon="6.67502">
        <ele>743</ele>
        <time>2019-10-01T07:49:22Z</time>
      </trkpt>
      <trkpt lat="43.96259" lon="6.67515">
        <ele>759</ele>
        <time>2019-10-01T07:49:53Z</time>
      </trkpt>
      <trkpt lat="43.96249" lon="6.6753">
        <ele>760</ele>
        <time>2019-10-01T07:50:27Z</time>
      </trkpt>
      <trkpt lat="43.96245" lon="6.67549">
        <ele>758</ele>
        <time>2019-10-01T07:50:38Z</time>
      </trkpt>
      <trkpt lat="43.96231" lon="6.67545">
        <ele>764</ele>
        <time>2019-10-01T07:51:16Z</time>
      </trkpt>
      <trkpt lat="43.96219" lon="6.67559">
        <ele>766</ele>
        <time>2019-10-01T07:51:30Z</time>
      </trkpt>
      <trkpt lat="43.96208" lon="6.67572">
        <ele>769</ele>
        <time>2019-10-01T07:53:45Z</time>
      </trkpt>
      <trkpt lat="43.96202" lon="6.67588">
        <ele>769</ele>
        <time>2019-10-01T07:53:57Z</time>
      </trkpt>
      <trkpt lat="43.96206" lon="6.67607">
        <ele>766</ele>
        <time>2019-10-01T07:54:15Z</time>
      </trkpt>
      <trkpt lat="43.96205" lon="6.67627">
        <ele>766</ele>
        <time>2019-10-01T07:54:27Z</time>
      </trkpt>
      <trkpt lat="43.9622" lon="6.67634">
        <ele>771</ele>
        <time>2019-10-01T07:55:18Z</time>
      </trkpt>
      <trkpt lat="43.96234" lon="6.67628">
        <ele>771</ele>
        <time>2019-10-01T07:55:59Z</time>
      </trkpt>
      <trkpt lat="43.96232" lon="6.67634">
        <ele>772</ele>
        <time>2019-10-01T07:56:32Z</time>
      </trkpt>
      <trkpt lat="43.96225" lon="6.67634">
        <ele>774</ele>
        <time>2019-10-01T07:56:38Z</time>
      </trkpt>
      <trkpt lat="43.96225" lon="6.67645">
        <ele>779</ele>
        <time>2019-10-01T07:57:37Z</time>
      </trkpt>
      <trkpt lat="43.96225" lon="6.6766">
        <ele>779</ele>
        <time>2019-10-01T07:57:47Z</time>
      </trkpt>
      <trkpt lat="43.96227" lon="6.67679">
        <ele>786</ele>
        <time>2019-10-01T07:58:48Z</time>
      </trkpt>
      <trkpt lat="43.96231" lon="6.6769">
        <ele>789</ele>
        <time>2019-10-01T08:01:00Z</time>
      </trkpt>
      <trkpt lat="43.96218" lon="6.67695">
        <ele>790</ele>
        <time>2019-10-01T08:02:36Z</time>
      </trkpt>
      <trkpt lat="43.96213" lon="6.67705">
        <ele>760</ele>
        <time>2019-10-01T08:02:40Z</time>
      </trkpt>
      <trkpt lat="43.96209" lon="6.67718">
        <ele>767</ele>
        <time>2019-10-01T08:02:46Z</time>
      </trkpt>
      <trkpt lat="43.9621" lon="6.67733">
        <ele>768</ele>
        <time>2019-10-01T08:03:05Z</time>
      </trkpt>
      <trkpt lat="43.96201" lon="6.67733">
        <ele>774</ele>
        <time>2019-10-01T08:03:14Z</time>
      </trkpt>
      <trkpt lat="43.96203" lon="6.67745">
        <ele>791</ele>
        <time>2019-10-01T08:03:39Z</time>
      </trkpt>
      <trkpt lat="43.96194" lon="6.67749">
        <ele>806</ele>
        <time>2019-10-01T08:04:12Z</time>
      </trkpt>
      <trkpt lat="43.96197" lon="6.67759">
        <ele>808</ele>
        <time>2019-10-01T08:04:20Z</time>
      </trkpt>
      <trkpt lat="43.96191" lon="6.67771">
        <ele>799</ele>
        <time>2019-10-01T08:04:49Z</time>
      </trkpt>
      <trkpt lat="43.9619" lon="6.6778">
        <ele>798</ele>
        <time>2019-10-01T08:05:06Z</time>
      </trkpt>
      <trkpt lat="43.96191" lon="6.6779">
        <ele>801</ele>
        <time>2019-10-01T08:05:15Z</time>
      </trkpt>
      <trkpt lat="43.96185" lon="6.67796">
        <ele>807</ele>
        <time>2019-10-01T08:05:33Z</time>
      </trkpt>
      <trkpt lat="43.96178" lon="6.67801">
        <ele>803</ele>
        <time>2019-10-01T08:05:41Z</time>
      </trkpt>
      <trkpt lat="43.96173" lon="6.67812">
        <ele>808</ele>
        <time>2019-10-01T08:05:56Z</time>
      </trkpt>
      <trkpt lat="43.96175" lon="6.67831">
        <ele>807</ele>
        <time>2019-10-01T08:06:05Z</time>
      </trkpt>
      <trkpt lat="43.96175" lon="6.67839">
        <ele>796</ele>
        <time>2019-10-01T08:06:26Z</time>
      </trkpt>
      <trkpt lat="43.96174" lon="6.67851">
        <ele>796</ele>
        <time>2019-10-01T08:06:37Z</time>
      </trkpt>
      <trkpt lat="43.96167" lon="6.67862">
        <ele>797</ele>
        <time>2019-10-01T08:06:46Z</time>
      </trkpt>
      <trkpt lat="43.96162" lon="6.67872">
        <ele>800</ele>
        <time>2019-10-01T08:07:01Z</time>
      </trkpt>
      <trkpt lat="43.96155" lon="6.67876">
        <ele>802</ele>
        <time>2019-10-01T08:07:12Z</time>
      </trkpt>
      <trkpt lat="43.96164" lon="6.67886">
        <ele>802</ele>
        <time>2019-10-01T08:07:22Z</time>
      </trkpt>
      <trkpt lat="43.96158" lon="6.67896">
        <ele>802</ele>
        <time>2019-10-01T08:07:49Z</time>
      </trkpt>
      <trkpt lat="43.96159" lon="6.67908">
        <ele>804</ele>
        <time>2019-10-01T08:08:00Z</time>
      </trkpt>
      <trkpt lat="43.96139" lon="6.67917">
        <ele>806</ele>
        <time>2019-10-01T08:08:17Z</time>
      </trkpt>
      <trkpt lat="43.96132" lon="6.67909">
        <ele>807</ele>
        <time>2019-10-01T08:08:29Z</time>
      </trkpt>
      <trkpt lat="43.96125" lon="6.67915">
        <ele>813</ele>
        <time>2019-10-01T08:08:37Z</time>
      </trkpt>
      <trkpt lat="43.96114" lon="6.67916">
        <ele>816</ele>
        <time>2019-10-01T08:08:48Z</time>
      </trkpt>
      <trkpt lat="43.9611" lon="6.67926">
        <ele>823</ele>
        <time>2019-10-01T08:08:56Z</time>
      </trkpt>
      <trkpt lat="43.96113" lon="6.67941">
        <ele>823</ele>
        <time>2019-10-01T08:09:24Z</time>
      </trkpt>
      <trkpt lat="43.96099" lon="6.67937">
        <ele>823</ele>
        <time>2019-10-01T08:09:39Z</time>
      </trkpt>
      <trkpt lat="43.96092" lon="6.67942">
        <ele>831</ele>
        <time>2019-10-01T08:09:48Z</time>
      </trkpt>
      <trkpt lat="43.96095" lon="6.67956">
        <ele>828</ele>
        <time>2019-10-01T08:09:57Z</time>
      </trkpt>
      <trkpt lat="43.96092" lon="6.67969">
        <ele>817</ele>
        <time>2019-10-01T08:10:17Z</time>
      </trkpt>
      <trkpt lat="43.96084" lon="6.67964">
        <ele>818</ele>
        <time>2019-10-01T08:10:26Z</time>
      </trkpt>
      <trkpt lat="43.96083" lon="6.67972">
        <ele>817</ele>
        <time>2019-10-01T08:10:36Z</time>
      </trkpt>
      <trkpt lat="43.96076" lon="6.67991">
        <ele>822</ele>
        <time>2019-10-01T08:11:02Z</time>
      </trkpt>
      <trkpt lat="43.96074" lon="6.68001">
        <ele>824</ele>
        <time>2019-10-01T08:11:10Z</time>
      </trkpt>
      <trkpt lat="43.9607" lon="6.68018">
        <ele>825</ele>
        <time>2019-10-01T08:11:43Z</time>
      </trkpt>
      <trkpt lat="43.96078" lon="6.68017">
        <ele>825</ele>
        <time>2019-10-01T08:12:22Z</time>
      </trkpt>
      <trkpt lat="43.9609" lon="6.68019">
        <ele>819</ele>
        <time>2019-10-01T08:12:41Z</time>
      </trkpt>
      <trkpt lat="43.961" lon="6.68024">
        <ele>827</ele>
        <time>2019-10-01T08:13:21Z</time>
      </trkpt>
      <trkpt lat="43.96094" lon="6.68035">
        <ele>833</ele>
        <time>2019-10-01T08:14:13Z</time>
      </trkpt>
      <trkpt lat="43.96096" lon="6.68047">
        <ele>837</ele>
        <time>2019-10-01T08:14:33Z</time>
      </trkpt>
      <trkpt lat="43.96117" lon="6.68046">
        <ele>836</ele>
        <time>2019-10-01T08:14:52Z</time>
      </trkpt>
      <trkpt lat="43.96129" lon="6.68041">
        <ele>837</ele>
        <time>2019-10-01T08:15:30Z</time>
      </trkpt>
      <trkpt lat="43.96138" lon="6.68037">
        <ele>836</ele>
        <time>2019-10-01T08:15:44Z</time>
      </trkpt>
      <trkpt lat="43.96149" lon="6.68042">
        <ele>840</ele>
        <time>2019-10-01T08:19:58Z</time>
      </trkpt>
      <trkpt lat="43.96159" lon="6.68035">
        <ele>834</ele>
        <time>2019-10-01T08:20:05Z</time>
      </trkpt>
      <trkpt lat="43.96172" lon="6.68025">
        <ele>818</ele>
        <time>2019-10-01T08:20:15Z</time>
      </trkpt>
      <trkpt lat="43.96183" lon="6.68023">
        <ele>822</ele>
        <time>2019-10-01T08:20:33Z</time>
      </trkpt>
      <trkpt lat="43.96197" lon="6.68026">
        <ele>820</ele>
        <time>2019-10-01T08:20:49Z</time>
      </trkpt>
      <trkpt lat="43.96211" lon="6.68018">
        <ele>824</ele>
        <time>2019-10-01T08:22:20Z</time>
      </trkpt>
      <trkpt lat="43.96227" lon="6.6802">
        <ele>832</ele>
        <time>2019-10-01T08:23:08Z</time>
      </trkpt>
      <trkpt lat="43.96245" lon="6.68042">
        <ele>829</ele>
        <time>2019-10-01T08:23:37Z</time>
      </trkpt>
      <trkpt lat="43.96209" lon="6.68058">
        <ele>829</ele>
        <time>2019-10-01T08:25:26Z</time>
      </trkpt>
      <trkpt lat="43.96172" lon="6.6806">
        <ele>824</ele>
        <time>2019-10-01T08:25:29Z</time>
      </trkpt>
      <trkpt lat="43.96167" lon="6.68038">
        <ele>847</ele>
        <time>2019-10-01T08:28:02Z</time>
      </trkpt>
      <trkpt lat="43.96149" lon="6.6805">
        <ele>855</ele>
        <time>2019-10-01T08:29:10Z</time>
      </trkpt>
      <trkpt lat="43.96129" lon="6.68051">
        <ele>878</ele>
        <time>2019-10-01T08:29:18Z</time>
      </trkpt>
      <trkpt lat="43.96119" lon="6.68067">
        <ele>874</ele>
        <time>2019-10-01T08:29:29Z</time>
      </trkpt>
      <trkpt lat="43.96109" lon="6.68076">
        <ele>844</ele>
        <time>2019-10-01T08:29:50Z</time>
      </trkpt>
      <trkpt lat="43.96103" lon="6.68092">
        <ele>844</ele>
        <time>2019-10-01T08:30:16Z</time>
      </trkpt>
      <trkpt lat="43.96105" lon="6.68109">
        <ele>846</ele>
        <time>2019-10-01T08:30:24Z</time>
      </trkpt>
      <trkpt lat="43.96089" lon="6.68112">
        <ele>841</ele>
        <time>2019-10-01T08:30:42Z</time>
      </trkpt>
      <trkpt lat="43.96086" lon="6.68125">
        <ele>848</ele>
        <time>2019-10-01T08:31:13Z</time>
      </trkpt>
      <trkpt lat="43.96065" lon="6.68124">
        <ele>851</ele>
        <time>2019-10-01T08:35:28Z</time>
      </trkpt>
      <trkpt lat="43.96058" lon="6.68197">
        <ele>868</ele>
        <time>2019-10-01T08:35:34Z</time>
      </trkpt>
      <trkpt lat="43.96037" lon="6.68202">
        <ele>840</ele>
        <time>2019-10-01T08:36:17Z</time>
      </trkpt>
      <trkpt lat="43.96021" lon="6.68192">
        <ele>862</ele>
        <time>2019-10-01T08:36:25Z</time>
      </trkpt>
      <trkpt lat="43.96007" lon="6.68201">
        <ele>859</ele>
        <time>2019-10-01T08:36:43Z</time>
      </trkpt>
      <trkpt lat="43.95998" lon="6.68208">
        <ele>891</ele>
        <time>2019-10-01T08:37:43Z</time>
      </trkpt>
      <trkpt lat="43.95989" lon="6.68215">
        <ele>880</ele>
        <time>2019-10-01T08:38:24Z</time>
      </trkpt>
      <trkpt lat="43.9598" lon="6.68223">
        <ele>881</ele>
        <time>2019-10-01T08:38:44Z</time>
      </trkpt>
      <trkpt lat="43.95973" lon="6.68224">
        <ele>875</ele>
        <time>2019-10-01T08:38:51Z</time>
      </trkpt>
      <trkpt lat="43.95968" lon="6.68228">
        <ele>891</ele>
        <time>2019-10-01T08:39:06Z</time>
      </trkpt>
      <trkpt lat="43.95963" lon="6.68233">
        <ele>906</ele>
        <time>2019-10-01T08:39:19Z</time>
      </trkpt>
      <trkpt lat="43.95964" lon="6.68244">
        <ele>919</ele>
        <time>2019-10-01T08:39:27Z</time>
      </trkpt>
      <trkpt lat="43.95963" lon="6.68258">
        <ele>898</ele>
        <time>2019-10-01T08:40:09Z</time>
      </trkpt>
      <trkpt lat="43.95965" lon="6.68268">
        <ele>913</ele>
        <time>2019-10-01T08:40:17Z</time>
      </trkpt>
      <trkpt lat="43.95973" lon="6.68292">
        <ele>914</ele>
        <time>2019-10-01T08:40:42Z</time>
      </trkpt>
      <trkpt lat="43.9598" lon="6.68298">
        <ele>911</ele>
        <time>2019-10-01T08:41:00Z</time>
      </trkpt>
      <trkpt lat="43.95984" lon="6.68319">
        <ele>914</ele>
        <time>2019-10-01T08:41:30Z</time>
      </trkpt>
      <trkpt lat="43.95982" lon="6.68342">
        <ele>915</ele>
        <time>2019-10-01T08:41:58Z</time>
      </trkpt>
      <trkpt lat="43.95983" lon="6.68358">
        <ele>907</ele>
        <time>2019-10-01T08:42:11Z</time>
      </trkpt>
      <trkpt lat="43.95986" lon="6.6837">
        <ele>919</ele>
        <time>2019-10-01T08:42:24Z</time>
      </trkpt>
      <trkpt lat="43.95992" lon="6.68388">
        <ele>940</ele>
        <time>2019-10-01T08:43:00Z</time>
      </trkpt>
      <trkpt lat="43.95999" lon="6.684">
        <ele>941</ele>
        <time>2019-10-01T08:43:15Z</time>
      </trkpt>
      <trkpt lat="43.96004" lon="6.68406">
        <ele>938</ele>
        <time>2019-10-01T08:43:25Z</time>
      </trkpt>
      <trkpt lat="43.96011" lon="6.68419">
        <ele>924</ele>
        <time>2019-10-01T08:43:47Z</time>
      </trkpt>
      <trkpt lat="43.96026" lon="6.68402">
        <ele>914</ele>
        <time>2019-10-01T08:44:04Z</time>
      </trkpt>
      <trkpt lat="43.96034" lon="6.68416">
        <ele>911</ele>
        <time>2019-10-01T08:44:20Z</time>
      </trkpt>
      <trkpt lat="43.96041" lon="6.68425">
        <ele>942</ele>
        <time>2019-10-01T08:44:30Z</time>
      </trkpt>
      <trkpt lat="43.96051" lon="6.6843">
        <ele>909</ele>
        <time>2019-10-01T08:44:49Z</time>
      </trkpt>
      <trkpt lat="43.96062" lon="6.68423">
        <ele>928</ele>
        <time>2019-10-01T08:45:05Z</time>
      </trkpt>
      <trkpt lat="43.96066" lon="6.68438">
        <ele>928</ele>
        <time>2019-10-01T08:45:11Z</time>
      </trkpt>
      <trkpt lat="43.96073" lon="6.68453">
        <ele>930</ele>
        <time>2019-10-01T08:45:25Z</time>
      </trkpt>
      <trkpt lat="43.96084" lon="6.68458">
        <ele>928</ele>
        <time>2019-10-01T08:46:21Z</time>
      </trkpt>
      <trkpt lat="43.96093" lon="6.68459">
        <ele>933</ele>
        <time>2019-10-01T08:46:33Z</time>
      </trkpt>
      <trkpt lat="43.96106" lon="6.68467">
        <ele>929</ele>
        <time>2019-10-01T08:46:50Z</time>
      </trkpt>
      <trkpt lat="43.96111" lon="6.68479">
        <ele>950</ele>
        <time>2019-10-01T08:46:58Z</time>
      </trkpt>
      <trkpt lat="43.96113" lon="6.6849">
        <ele>940</ele>
        <time>2019-10-01T08:47:07Z</time>
      </trkpt>
      <trkpt lat="43.9613" lon="6.68494">
        <ele>925</ele>
        <time>2019-10-01T08:47:36Z</time>
      </trkpt>
      <trkpt lat="43.96141" lon="6.68494">
        <ele>952</ele>
        <time>2019-10-01T08:47:56Z</time>
      </trkpt>
      <trkpt lat="43.96148" lon="6.685">
        <ele>949</ele>
        <time>2019-10-01T08:48:06Z</time>
      </trkpt>
      <trkpt lat="43.96156" lon="6.68502">
        <ele>903</ele>
        <time>2019-10-01T08:48:12Z</time>
      </trkpt>
      <trkpt lat="43.96163" lon="6.68499">
        <ele>924</ele>
        <time>2019-10-01T08:48:21Z</time>
      </trkpt>
      <trkpt lat="43.96165" lon="6.68491">
        <ele>934</ele>
        <time>2019-10-01T08:48:37Z</time>
      </trkpt>
      <trkpt lat="43.96172" lon="6.68485">
        <ele>931</ele>
        <time>2019-10-01T08:48:46Z</time>
      </trkpt>
      <trkpt lat="43.96183" lon="6.68484">
        <ele>934</ele>
        <time>2019-10-01T08:49:11Z</time>
      </trkpt>
      <trkpt lat="43.96192" lon="6.68472">
        <ele>936</ele>
        <time>2019-10-01T08:49:28Z</time>
      </trkpt>
      <trkpt lat="43.96201" lon="6.6846">
        <ele>953</ele>
        <time>2019-10-01T08:49:58Z</time>
      </trkpt>
      <trkpt lat="43.96205" lon="6.68458">
        <ele>971</ele>
        <time>2019-10-01T08:50:08Z</time>
      </trkpt>
      <trkpt lat="43.96218" lon="6.68447">
        <ele>975</ele>
        <time>2019-10-01T08:50:41Z</time>
      </trkpt>
      <trkpt lat="43.96221" lon="6.68436">
        <ele>977</ele>
        <time>2019-10-01T08:50:54Z</time>
      </trkpt>
      <trkpt lat="43.9623" lon="6.68426">
        <ele>979</ele>
        <time>2019-10-01T08:51:11Z</time>
      </trkpt>
      <trkpt lat="43.96248" lon="6.68427">
        <ele>982</ele>
        <time>2019-10-01T08:51:37Z</time>
      </trkpt>
      <trkpt lat="43.96262" lon="6.68429">
        <ele>984</ele>
        <time>2019-10-01T08:51:49Z</time>
      </trkpt>
      <trkpt lat="43.96273" lon="6.68417">
        <ele>983</ele>
        <time>2019-10-01T08:52:08Z</time>
      </trkpt>
      <trkpt lat="43.96278" lon="6.6841">
        <ele>983</ele>
        <time>2019-10-01T08:52:16Z</time>
      </trkpt>
      <trkpt lat="43.9628" lon="6.68392">
        <ele>982</ele>
        <time>2019-10-01T08:52:54Z</time>
      </trkpt>
      <trkpt lat="43.96284" lon="6.68384">
        <ele>978</ele>
        <time>2019-10-01T08:53:00Z</time>
      </trkpt>
      <trkpt lat="43.96291" lon="6.68383">
        <ele>979</ele>
        <time>2019-10-01T08:53:07Z</time>
      </trkpt>
      <trkpt lat="43.963" lon="6.68378">
        <ele>985</ele>
        <time>2019-10-01T08:53:17Z</time>
      </trkpt>
      <trkpt lat="43.96307" lon="6.68365">
        <ele>985</ele>
        <time>2019-10-01T08:53:28Z</time>
      </trkpt>
      <trkpt lat="43.96316" lon="6.68371">
        <ele>989</ele>
        <time>2019-10-01T08:53:51Z</time>
      </trkpt>
      <trkpt lat="43.96324" lon="6.68383">
        <ele>990</ele>
        <time>2019-10-01T08:54:02Z</time>
      </trkpt>
      <trkpt lat="43.96326" lon="6.68393">
        <ele>995</ele>
        <time>2019-10-01T08:54:13Z</time>
      </trkpt>
      <trkpt lat="43.9633" lon="6.68408">
        <ele>1002</ele>
        <time>2019-10-01T08:54:25Z</time>
      </trkpt>
      <trkpt lat="43.96329" lon="6.68417">
        <ele>1007</ele>
        <time>2019-10-01T08:54:33Z</time>
      </trkpt>
      <trkpt lat="43.96328" lon="6.68423">
        <ele>1009</ele>
        <time>2019-10-01T08:54:37Z</time>
      </trkpt>
      <trkpt lat="43.96332" lon="6.68429">
        <ele>1009</ele>
        <time>2019-10-01T08:54:45Z</time>
      </trkpt>
      <trkpt lat="43.96351" lon="6.68451">
        <ele>1016</ele>
        <time>2019-10-01T08:55:14Z</time>
      </trkpt>
      <trkpt lat="43.96355" lon="6.6845">
        <ele>1015</ele>
        <time>2019-10-01T08:55:23Z</time>
      </trkpt>
      <trkpt lat="43.96359" lon="6.68455">
        <ele>1017</ele>
        <time>2019-10-01T08:55:29Z</time>
      </trkpt>
      <trkpt lat="43.9636" lon="6.68461">
        <ele>1019</ele>
        <time>2019-10-01T08:55:33Z</time>
      </trkpt>
      <trkpt lat="43.96363" lon="6.68466">
        <ele>1019</ele>
        <time>2019-10-01T08:55:40Z</time>
      </trkpt>
      <trkpt lat="43.96367" lon="6.68474">
        <ele>1021</ele>
        <time>2019-10-01T08:55:46Z</time>
      </trkpt>
      <trkpt lat="43.96371" lon="6.68478">
        <ele>1022</ele>
        <time>2019-10-01T08:55:52Z</time>
      </trkpt>
      <trkpt lat="43.96375" lon="6.68481">
        <ele>1022</ele>
        <time>2019-10-01T08:55:59Z</time>
      </trkpt>
      <trkpt lat="43.9638" lon="6.68477">
        <ele>1014</ele>
        <time>2019-10-01T08:56:29Z</time>
      </trkpt>
      <trkpt lat="43.96384" lon="6.68483">
        <ele>1012</ele>
        <time>2019-10-01T08:56:38Z</time>
      </trkpt>
      <trkpt lat="43.9639" lon="6.68484">
        <ele>1004</ele>
        <time>2019-10-01T08:56:44Z</time>
      </trkpt>
      <trkpt lat="43.96398" lon="6.68486">
        <ele>1007</ele>
        <time>2019-10-01T08:56:51Z</time>
      </trkpt>
      <trkpt lat="43.96413" lon="6.68496">
        <ele>1000</ele>
        <time>2019-10-01T08:57:21Z</time>
      </trkpt>
      <trkpt lat="43.96419" lon="6.68496">
        <ele>1000</ele>
        <time>2019-10-01T08:57:32Z</time>
      </trkpt>
      <trkpt lat="43.96427" lon="6.68495">
        <ele>1003</ele>
        <time>2019-10-01T08:57:43Z</time>
      </trkpt>
      <trkpt lat="43.96427" lon="6.68506">
        <ele>1009</ele>
        <time>2019-10-01T08:57:55Z</time>
      </trkpt>
      <trkpt lat="43.96426" lon="6.68517">
        <ele>1016</ele>
        <time>2019-10-01T08:58:11Z</time>
      </trkpt>
      <trkpt lat="43.96419" lon="6.68522">
        <ele>1016</ele>
        <time>2019-10-01T08:58:17Z</time>
      </trkpt>
      <trkpt lat="43.96414" lon="6.68527">
        <ele>1020</ele>
        <time>2019-10-01T08:58:22Z</time>
      </trkpt>
      <trkpt lat="43.9642" lon="6.68529">
        <ele>1023</ele>
        <time>2019-10-01T08:58:27Z</time>
      </trkpt>
      <trkpt lat="43.96424" lon="6.68532">
        <ele>1027</ele>
        <time>2019-10-01T08:58:34Z</time>
      </trkpt>
      <trkpt lat="43.96422" lon="6.68538">
        <ele>1028</ele>
        <time>2019-10-01T08:58:43Z</time>
      </trkpt>
      <trkpt lat="43.96423" lon="6.68544">
        <ele>1030</ele>
        <time>2019-10-01T08:58:49Z</time>
      </trkpt>
      <trkpt lat="43.96419" lon="6.68551">
        <ele>1033</ele>
        <time>2019-10-01T08:58:54Z</time>
      </trkpt>
      <trkpt lat="43.96417" lon="6.68557">
        <ele>1037</ele>
        <time>2019-10-01T08:59:03Z</time>
      </trkpt>
      <trkpt lat="43.96415" lon="6.68563">
        <ele>1040</ele>
        <time>2019-10-01T08:59:11Z</time>
      </trkpt>
      <trkpt lat="43.96418" lon="6.6857">
        <ele>1035</ele>
        <time>2019-10-01T08:59:26Z</time>
      </trkpt>
      <trkpt lat="43.96423" lon="6.68571">
        <ele>1036</ele>
        <time>2019-10-01T08:59:32Z</time>
      </trkpt>
      <trkpt lat="43.96427" lon="6.68571">
        <ele>1040</ele>
        <time>2019-10-01T08:59:41Z</time>
      </trkpt>
      <trkpt lat="43.96432" lon="6.68589">
        <ele>1045</ele>
        <time>2019-10-01T08:59:50Z</time>
      </trkpt>
      <trkpt lat="43.96429" lon="6.68592">
        <ele>1047</ele>
        <time>2019-10-01T09:00:13Z</time>
      </trkpt>
      <trkpt lat="43.96427" lon="6.68595">
        <ele>1044</ele>
        <time>2019-10-01T09:02:16Z</time>
      </trkpt>
      <trkpt lat="43.96407" lon="6.68605">
        <ele>1053</ele>
        <time>2019-10-01T09:02:37Z</time>
      </trkpt>
      <trkpt lat="43.96401" lon="6.68605">
        <ele>1053</ele>
        <time>2019-10-01T09:02:45Z</time>
      </trkpt>
      <trkpt lat="43.96399" lon="6.68613">
        <ele>1051</ele>
        <time>2019-10-01T09:03:01Z</time>
      </trkpt>
      <trkpt lat="43.96394" lon="6.68619">
        <ele>1052</ele>
        <time>2019-10-01T09:03:07Z</time>
      </trkpt>
      <trkpt lat="43.96385" lon="6.68622">
        <ele>1053</ele>
        <time>2019-10-01T09:03:19Z</time>
      </trkpt>
      <trkpt lat="43.9638" lon="6.68625">
        <ele>1055</ele>
        <time>2019-10-01T09:03:27Z</time>
      </trkpt>
      <trkpt lat="43.96376" lon="6.68628">
        <ele>1056</ele>
        <time>2019-10-01T09:03:32Z</time>
      </trkpt>
      <trkpt lat="43.96372" lon="6.68631">
        <ele>1058</ele>
        <time>2019-10-01T09:03:37Z</time>
      </trkpt>
      <trkpt lat="43.96371" lon="6.68637">
        <ele>1057</ele>
        <time>2019-10-01T09:03:42Z</time>
      </trkpt>
      <trkpt lat="43.96372" lon="6.68642">
        <ele>1054</ele>
        <time>2019-10-01T09:03:47Z</time>
      </trkpt>
      <trkpt lat="43.9637" lon="6.68649">
        <ele>1053</ele>
        <time>2019-10-01T09:03:52Z</time>
      </trkpt>
      <trkpt lat="43.96365" lon="6.6865">
        <ele>1055</ele>
        <time>2019-10-01T09:03:58Z</time>
      </trkpt>
      <trkpt lat="43.96361" lon="6.68654">
        <ele>1057</ele>
        <time>2019-10-01T09:04:16Z</time>
      </trkpt>
      <trkpt lat="43.96357" lon="6.68657">
        <ele>1060</ele>
        <time>2019-10-01T09:04:19Z</time>
      </trkpt>
      <trkpt lat="43.96352" lon="6.6866">
        <ele>1061</ele>
        <time>2019-10-01T09:04:25Z</time>
      </trkpt>
      <trkpt lat="43.96349" lon="6.68665">
        <ele>1061</ele>
        <time>2019-10-01T09:04:33Z</time>
      </trkpt>
      <trkpt lat="43.96346" lon="6.68658">
        <ele>1058</ele>
        <time>2019-10-01T09:04:48Z</time>
      </trkpt>
      <trkpt lat="43.96343" lon="6.68662">
        <ele>1049</ele>
        <time>2019-10-01T09:07:06Z</time>
      </trkpt>
      <trkpt lat="43.96341" lon="6.68661">
        <ele>1048</ele>
        <time>2019-10-01T09:26:09Z</time>
      </trkpt>
      <trkpt lat="43.9634" lon="6.68664">
        <ele>1049</ele>
        <time>2019-10-01T09:38:51Z</time>
      </trkpt>
      <trkpt lat="43.96346" lon="6.68662">
        <ele>1049</ele>
        <time>2019-10-01T09:39:20Z</time>
      </trkpt>
      <trkpt lat="43.96353" lon="6.68662">
        <ele>1049</ele>
        <time>2019-10-01T09:39:59Z</time>
      </trkpt>
      <trkpt lat="43.96352" lon="6.68658">
        <ele>1052</ele>
        <time>2019-10-01T09:41:00Z</time>
      </trkpt>
      <trkpt lat="43.96359" lon="6.68644">
        <ele>1052</ele>
        <time>2019-10-01T09:41:25Z</time>
      </trkpt>
      <trkpt lat="43.96363" lon="6.68634">
        <ele>1052</ele>
        <time>2019-10-01T09:41:39Z</time>
      </trkpt>
      <trkpt lat="43.96363" lon="6.68628">
        <ele>1046</ele>
        <time>2019-10-01T09:41:47Z</time>
      </trkpt>
      <trkpt lat="43.96363" lon="6.68622">
        <ele>1044</ele>
        <time>2019-10-01T09:41:54Z</time>
      </trkpt>
      <trkpt lat="43.9636" lon="6.68618">
        <ele>1040</ele>
        <time>2019-10-01T09:42:07Z</time>
      </trkpt>
      <trkpt lat="43.9636" lon="6.68613">
        <ele>1041</ele>
        <time>2019-10-01T09:42:55Z</time>
      </trkpt>
      <trkpt lat="43.96363" lon="6.68607">
        <ele>1040</ele>
        <time>2019-10-01T09:43:08Z</time>
      </trkpt>
      <trkpt lat="43.96362" lon="6.68596">
        <ele>1038</ele>
        <time>2019-10-01T09:43:22Z</time>
      </trkpt>
      <trkpt lat="43.96372" lon="6.6858">
        <ele>1037</ele>
        <time>2019-10-01T09:43:39Z</time>
      </trkpt>
      <trkpt lat="43.96373" lon="6.68572">
        <ele>1036</ele>
        <time>2019-10-01T09:43:43Z</time>
      </trkpt>
      <trkpt lat="43.96378" lon="6.68568">
        <ele>1035</ele>
        <time>2019-10-01T09:43:50Z</time>
      </trkpt>
      <trkpt lat="43.9638" lon="6.68559">
        <ele>1034</ele>
        <time>2019-10-01T09:43:58Z</time>
      </trkpt>
      <trkpt lat="43.96386" lon="6.68557">
        <ele>1034</ele>
        <time>2019-10-01T09:44:04Z</time>
      </trkpt>
      <trkpt lat="43.96394" lon="6.68548">
        <ele>1035</ele>
        <time>2019-10-01T09:44:15Z</time>
      </trkpt>
      <trkpt lat="43.96395" lon="6.68538">
        <ele>1021</ele>
        <time>2019-10-01T09:44:30Z</time>
      </trkpt>
      <trkpt lat="43.96401" lon="6.68531">
        <ele>1024</ele>
        <time>2019-10-01T09:44:36Z</time>
      </trkpt>
      <trkpt lat="43.96413" lon="6.68526">
        <ele>1027</ele>
        <time>2019-10-01T09:44:50Z</time>
      </trkpt>
      <trkpt lat="43.96418" lon="6.6852">
        <ele>1025</ele>
        <time>2019-10-01T09:45:07Z</time>
      </trkpt>
      <trkpt lat="43.96423" lon="6.68517">
        <ele>1013</ele>
        <time>2019-10-01T09:45:41Z</time>
      </trkpt>
      <trkpt lat="43.96429" lon="6.68506">
        <ele>943</ele>
        <time>2019-10-01T09:45:57Z</time>
      </trkpt>
      <trkpt lat="43.96424" lon="6.68501">
        <ele>998</ele>
        <time>2019-10-01T09:46:11Z</time>
      </trkpt>
      <trkpt lat="43.96416" lon="6.68501">
        <ele>1015</ele>
        <time>2019-10-01T09:46:24Z</time>
      </trkpt>
      <trkpt lat="43.96409" lon="6.68495">
        <ele>1015</ele>
        <time>2019-10-01T09:46:34Z</time>
      </trkpt>
      <trkpt lat="43.96397" lon="6.68492">
        <ele>1010</ele>
        <time>2019-10-01T09:46:44Z</time>
      </trkpt>
      <trkpt lat="43.96389" lon="6.68493">
        <ele>1008</ele>
        <time>2019-10-01T09:46:53Z</time>
      </trkpt>
      <trkpt lat="43.96384" lon="6.6849">
        <ele>991</ele>
        <time>2019-10-01T09:47:01Z</time>
      </trkpt>
      <trkpt lat="43.96366" lon="6.68475">
        <ele>1005</ele>
        <time>2019-10-01T09:47:22Z</time>
      </trkpt>
      <trkpt lat="43.96351" lon="6.68458">
        <ele>1002</ele>
        <time>2019-10-01T09:47:43Z</time>
      </trkpt>
      <trkpt lat="43.96342" lon="6.68443">
        <ele>997</ele>
        <time>2019-10-01T09:48:00Z</time>
      </trkpt>
      <trkpt lat="43.96341" lon="6.68433">
        <ele>968</ele>
        <time>2019-10-01T09:48:12Z</time>
      </trkpt>
      <trkpt lat="43.96334" lon="6.68424">
        <ele>976</ele>
        <time>2019-10-01T09:48:20Z</time>
      </trkpt>
      <trkpt lat="43.96327" lon="6.68418">
        <ele>994</ele>
        <time>2019-10-01T09:48:26Z</time>
      </trkpt>
      <trkpt lat="43.96308" lon="6.68373">
        <ele>1004</ele>
        <time>2019-10-01T09:49:12Z</time>
      </trkpt>
      <trkpt lat="43.96304" lon="6.68365">
        <ele>1009</ele>
        <time>2019-10-01T09:49:17Z</time>
      </trkpt>
      <trkpt lat="43.96307" lon="6.68356">
        <ele>970</ele>
        <time>2019-10-01T09:49:23Z</time>
      </trkpt>
      <trkpt lat="43.96311" lon="6.6835">
        <ele>984</ele>
        <time>2019-10-01T09:49:31Z</time>
      </trkpt>
      <trkpt lat="43.96317" lon="6.68348">
        <ele>989</ele>
        <time>2019-10-01T09:49:40Z</time>
      </trkpt>
      <trkpt lat="43.96324" lon="6.68351">
        <ele>993</ele>
        <time>2019-10-01T09:49:51Z</time>
      </trkpt>
      <trkpt lat="43.96329" lon="6.68342">
        <ele>995</ele>
        <time>2019-10-01T09:49:59Z</time>
      </trkpt>
      <trkpt lat="43.96335" lon="6.68335">
        <ele>999</ele>
        <time>2019-10-01T09:50:06Z</time>
      </trkpt>
      <trkpt lat="43.96337" lon="6.68325">
        <ele>960</ele>
        <time>2019-10-01T09:50:17Z</time>
      </trkpt>
      <trkpt lat="43.96355" lon="6.68305">
        <ele>994</ele>
        <time>2019-10-01T09:50:45Z</time>
      </trkpt>
      <trkpt lat="43.96357" lon="6.68294">
        <ele>1008</ele>
        <time>2019-10-01T09:51:01Z</time>
      </trkpt>
      <trkpt lat="43.96356" lon="6.68285">
        <ele>995</ele>
        <time>2019-10-01T09:51:06Z</time>
      </trkpt>
      <trkpt lat="43.96357" lon="6.68278">
        <ele>951</ele>
        <time>2019-10-01T09:51:11Z</time>
      </trkpt>
      <trkpt lat="43.96361" lon="6.68259">
        <ele>991</ele>
        <time>2019-10-01T09:51:36Z</time>
      </trkpt>
      <trkpt lat="43.96369" lon="6.68255">
        <ele>1008</ele>
        <time>2019-10-01T09:51:46Z</time>
      </trkpt>
      <trkpt lat="43.96374" lon="6.68239">
        <ele>1007</ele>
        <time>2019-10-01T09:52:01Z</time>
      </trkpt>
      <trkpt lat="43.96377" lon="6.68228">
        <ele>1006</ele>
        <time>2019-10-01T09:52:08Z</time>
      </trkpt>
      <trkpt lat="43.96379" lon="6.68221">
        <ele>1006</ele>
        <time>2019-10-01T09:52:17Z</time>
      </trkpt>
      <trkpt lat="43.96375" lon="6.68215">
        <ele>1005</ele>
        <time>2019-10-01T09:52:21Z</time>
      </trkpt>
      <trkpt lat="43.9638" lon="6.68203">
        <ele>1007</ele>
        <time>2019-10-01T09:52:29Z</time>
      </trkpt>
      <trkpt lat="43.96384" lon="6.68189">
        <ele>1008</ele>
        <time>2019-10-01T09:52:38Z</time>
      </trkpt>
      <trkpt lat="43.96383" lon="6.68176">
        <ele>1009</ele>
        <time>2019-10-01T09:52:43Z</time>
      </trkpt>
      <trkpt lat="43.96382" lon="6.68168">
        <ele>1013</ele>
        <time>2019-10-01T09:52:46Z</time>
      </trkpt>
      <trkpt lat="43.96382" lon="6.6816">
        <ele>987</ele>
        <time>2019-10-01T09:52:50Z</time>
      </trkpt>
      <trkpt lat="43.96376" lon="6.68153">
        <ele>1002</ele>
        <time>2019-10-01T09:53:13Z</time>
      </trkpt>
      <trkpt lat="43.9638" lon="6.68155">
        <ele>1006</ele>
        <time>2019-10-01T09:54:10Z</time>
      </trkpt>
      <trkpt lat="43.96385" lon="6.68149">
        <ele>1003</ele>
        <time>2019-10-01T09:54:15Z</time>
      </trkpt>
      <trkpt lat="43.96389" lon="6.68147">
        <ele>969</ele>
        <time>2019-10-01T09:54:21Z</time>
      </trkpt>
      <trkpt lat="43.96395" lon="6.6814">
        <ele>1006</ele>
        <time>2019-10-01T09:55:01Z</time>
      </trkpt>
      <trkpt lat="43.96395" lon="6.68131">
        <ele>1020</ele>
        <time>2019-10-01T09:55:02Z</time>
      </trkpt>
      <trkpt lat="43.96395" lon="6.68122">
        <ele>994</ele>
        <time>2019-10-01T09:55:04Z</time>
      </trkpt>
      <trkpt lat="43.96398" lon="6.68119">
        <ele>981</ele>
        <time>2019-10-01T09:55:07Z</time>
      </trkpt>
      <trkpt lat="43.96409" lon="6.68125">
        <ele>1007</ele>
        <time>2019-10-01T09:55:15Z</time>
      </trkpt>
      <trkpt lat="43.96416" lon="6.68123">
        <ele>1021</ele>
        <time>2019-10-01T09:55:34Z</time>
      </trkpt>
      <trkpt lat="43.96416" lon="6.68117">
        <ele>1031</ele>
        <time>2019-10-01T09:55:45Z</time>
      </trkpt>
      <trkpt lat="43.9642" lon="6.68114">
        <ele>1035</ele>
        <time>2019-10-01T09:56:23Z</time>
      </trkpt>
      <trkpt lat="43.96427" lon="6.6812">
        <ele>1036</ele>
        <time>2019-10-01T09:56:45Z</time>
      </trkpt>
      <trkpt lat="43.96434" lon="6.68127">
        <ele>1042</ele>
        <time>2019-10-01T09:56:52Z</time>
      </trkpt>
      <trkpt lat="43.96441" lon="6.68124">
        <ele>1037</ele>
        <time>2019-10-01T09:57:12Z</time>
      </trkpt>
      <trkpt lat="43.9645" lon="6.68121">
        <ele>1041</ele>
        <time>2019-10-01T09:57:23Z</time>
      </trkpt>
      <trkpt lat="43.96456" lon="6.68124">
        <ele>1041</ele>
        <time>2019-10-01T09:57:42Z</time>
      </trkpt>
      <trkpt lat="43.96463" lon="6.68128">
        <ele>1039</ele>
        <time>2019-10-01T09:57:54Z</time>
      </trkpt>
      <trkpt lat="43.96469" lon="6.68123">
        <ele>1041</ele>
        <time>2019-10-01T09:58:09Z</time>
      </trkpt>
      <trkpt lat="43.96476" lon="6.68128">
        <ele>1042</ele>
        <time>2019-10-01T09:58:15Z</time>
      </trkpt>
      <trkpt lat="43.96483" lon="6.68137">
        <ele>1014</ele>
        <time>2019-10-01T09:58:31Z</time>
      </trkpt>
      <trkpt lat="43.96499" lon="6.68134">
        <ele>1041</ele>
        <time>2019-10-01T09:59:03Z</time>
      </trkpt>
      <trkpt lat="43.96507" lon="6.68131">
        <ele>1045</ele>
        <time>2019-10-01T09:59:23Z</time>
      </trkpt>
      <trkpt lat="43.96514" lon="6.68137">
        <ele>1053</ele>
        <time>2019-10-01T09:59:55Z</time>
      </trkpt>
      <trkpt lat="43.96521" lon="6.68142">
        <ele>1055</ele>
        <time>2019-10-01T10:00:05Z</time>
      </trkpt>
      <trkpt lat="43.9653" lon="6.6814">
        <ele>1059</ele>
        <time>2019-10-01T10:00:12Z</time>
      </trkpt>
      <trkpt lat="43.96534" lon="6.6815">
        <ele>1061</ele>
        <time>2019-10-01T10:00:26Z</time>
      </trkpt>
      <trkpt lat="43.96542" lon="6.68153">
        <ele>1059</ele>
        <time>2019-10-01T10:00:35Z</time>
      </trkpt>
      <trkpt lat="43.96549" lon="6.68159">
        <ele>1065</ele>
        <time>2019-10-01T10:00:41Z</time>
      </trkpt>
      <trkpt lat="43.96551" lon="6.68167">
        <ele>1068</ele>
        <time>2019-10-01T10:00:50Z</time>
      </trkpt>
      <trkpt lat="43.96557" lon="6.68166">
        <ele>1068</ele>
        <time>2019-10-01T10:00:55Z</time>
      </trkpt>
      <trkpt lat="43.96571" lon="6.68174">
        <ele>1067</ele>
        <time>2019-10-01T10:01:12Z</time>
      </trkpt>
      <trkpt lat="43.96581" lon="6.68178">
        <ele>1069</ele>
        <time>2019-10-01T10:01:30Z</time>
      </trkpt>
      <trkpt lat="43.96592" lon="6.68182">
        <ele>992</ele>
        <time>2019-10-01T10:01:36Z</time>
      </trkpt>
      <trkpt lat="43.96601" lon="6.68191">
        <ele>1045</ele>
        <time>2019-10-01T10:01:50Z</time>
      </trkpt>
      <trkpt lat="43.96609" lon="6.68197">
        <ele>1072</ele>
        <time>2019-10-01T10:02:00Z</time>
      </trkpt>
      <trkpt lat="43.96618" lon="6.68194">
        <ele>1073</ele>
        <time>2019-10-01T10:02:17Z</time>
      </trkpt>
      <trkpt lat="43.96627" lon="6.68203">
        <ele>995</ele>
        <time>2019-10-01T10:02:29Z</time>
      </trkpt>
      <trkpt lat="43.96636" lon="6.68208">
        <ele>1022</ele>
        <time>2019-10-01T10:02:41Z</time>
      </trkpt>
      <trkpt lat="43.96646" lon="6.68215">
        <ele>1061</ele>
        <time>2019-10-01T10:02:53Z</time>
      </trkpt>
      <trkpt lat="43.96652" lon="6.68221">
        <ele>1068</ele>
        <time>2019-10-01T10:03:02Z</time>
      </trkpt>
      <trkpt lat="43.96658" lon="6.68228">
        <ele>1020</ele>
        <time>2019-10-01T10:03:14Z</time>
      </trkpt>
      <trkpt lat="43.9666" lon="6.68237">
        <ele>1048</ele>
        <time>2019-10-01T10:03:23Z</time>
      </trkpt>
      <trkpt lat="43.96666" lon="6.68248">
        <ele>987</ele>
        <time>2019-10-01T10:03:39Z</time>
      </trkpt>
      <trkpt lat="43.96676" lon="6.68254">
        <ele>1034</ele>
        <time>2019-10-01T10:03:49Z</time>
      </trkpt>
      <trkpt lat="43.9668" lon="6.68265">
        <ele>1049</ele>
        <time>2019-10-01T10:03:57Z</time>
      </trkpt>
      <trkpt lat="43.96687" lon="6.68274">
        <ele>1073</ele>
        <time>2019-10-01T10:04:09Z</time>
      </trkpt>
      <trkpt lat="43.96694" lon="6.68281">
        <ele>1078</ele>
        <time>2019-10-01T10:04:21Z</time>
      </trkpt>
      <trkpt lat="43.96701" lon="6.68283">
        <ele>1017</ele>
        <time>2019-10-01T10:04:41Z</time>
      </trkpt>
      <trkpt lat="43.96713" lon="6.68288">
        <ele>1048</ele>
        <time>2019-10-01T10:05:02Z</time>
      </trkpt>
      <trkpt lat="43.96721" lon="6.68293">
        <ele>1073</ele>
        <time>2019-10-01T10:05:11Z</time>
      </trkpt>
      <trkpt lat="43.9673" lon="6.68299">
        <ele>1075</ele>
        <time>2019-10-01T10:05:19Z</time>
      </trkpt>
      <trkpt lat="43.96737" lon="6.68298">
        <ele>1079</ele>
        <time>2019-10-01T10:05:25Z</time>
      </trkpt>
      <trkpt lat="43.96745" lon="6.68301">
        <ele>1078</ele>
        <time>2019-10-01T10:05:34Z</time>
      </trkpt>
      <trkpt lat="43.96751" lon="6.68298">
        <ele>1005</ele>
        <time>2019-10-01T10:05:37Z</time>
      </trkpt>
      <trkpt lat="43.96757" lon="6.68298">
        <ele>1031</ele>
        <time>2019-10-01T10:05:40Z</time>
      </trkpt>
      <trkpt lat="43.96766" lon="6.68301">
        <ele>1038</ele>
        <time>2019-10-01T10:06:00Z</time>
      </trkpt>
      <trkpt lat="43.96776" lon="6.68298">
        <ele>1029</ele>
        <time>2019-10-01T10:06:13Z</time>
      </trkpt>
      <trkpt lat="43.96785" lon="6.683">
        <ele>1059</ele>
        <time>2019-10-01T10:06:28Z</time>
      </trkpt>
      <trkpt lat="43.96792" lon="6.68292">
        <ele>1069</ele>
        <time>2019-10-01T10:06:39Z</time>
      </trkpt>
      <trkpt lat="43.96799" lon="6.68293">
        <ele>1085</ele>
        <time>2019-10-01T10:06:46Z</time>
      </trkpt>
      <trkpt lat="43.96809" lon="6.68293">
        <ele>1039</ele>
        <time>2019-10-01T10:06:58Z</time>
      </trkpt>
      <trkpt lat="43.96821" lon="6.68288">
        <ele>1052</ele>
        <time>2019-10-01T10:07:10Z</time>
      </trkpt>
      <trkpt lat="43.96831" lon="6.68286">
        <ele>1074</ele>
        <time>2019-10-01T10:07:24Z</time>
      </trkpt>
      <trkpt lat="43.96842" lon="6.68281">
        <ele>1081</ele>
        <time>2019-10-01T10:07:46Z</time>
      </trkpt>
      <trkpt lat="43.96853" lon="6.68276">
        <ele>1080</ele>
        <time>2019-10-01T10:07:57Z</time>
      </trkpt>
      <trkpt lat="43.96866" lon="6.6827">
        <ele>1083</ele>
        <time>2019-10-01T10:08:06Z</time>
      </trkpt>
      <trkpt lat="43.96873" lon="6.68263">
        <ele>1090</ele>
        <time>2019-10-01T10:08:17Z</time>
      </trkpt>
      <trkpt lat="43.96883" lon="6.68267">
        <ele>1021</ele>
        <time>2019-10-01T10:08:24Z</time>
      </trkpt>
      <trkpt lat="43.9689" lon="6.68272">
        <ele>1058</ele>
        <time>2019-10-01T10:08:32Z</time>
      </trkpt>
      <trkpt lat="43.96909" lon="6.68268">
        <ele>1087</ele>
        <time>2019-10-01T10:09:02Z</time>
      </trkpt>
      <trkpt lat="43.9692" lon="6.68271">
        <ele>1045</ele>
        <time>2019-10-01T10:09:12Z</time>
      </trkpt>
      <trkpt lat="43.96932" lon="6.68278">
        <ele>1051</ele>
        <time>2019-10-01T10:09:23Z</time>
      </trkpt>
      <trkpt lat="43.9694" lon="6.68271">
        <ele>1082</ele>
        <time>2019-10-01T10:09:31Z</time>
      </trkpt>
      <trkpt lat="43.96947" lon="6.68273">
        <ele>1092</ele>
        <time>2019-10-01T10:09:37Z</time>
      </trkpt>
      <trkpt lat="43.96954" lon="6.68272">
        <ele>1099</ele>
        <time>2019-10-01T10:09:45Z</time>
      </trkpt>
      <trkpt lat="43.96965" lon="6.6827">
        <ele>1101</ele>
        <time>2019-10-01T10:09:57Z</time>
      </trkpt>
      <trkpt lat="43.96975" lon="6.68265">
        <ele>1104</ele>
        <time>2019-10-01T10:10:18Z</time>
      </trkpt>
      <trkpt lat="43.9698" lon="6.68262">
        <ele>1106</ele>
        <time>2019-10-01T10:10:24Z</time>
      </trkpt>
      <trkpt lat="43.96988" lon="6.68263">
        <ele>1113</ele>
        <time>2019-10-01T10:10:41Z</time>
      </trkpt>
      <trkpt lat="43.96992" lon="6.68257">
        <ele>1116</ele>
        <time>2019-10-01T10:10:51Z</time>
      </trkpt>
      <trkpt lat="43.97" lon="6.68257">
        <ele>1104</ele>
        <time>2019-10-01T10:11:41Z</time>
      </trkpt>
      <trkpt lat="43.97009" lon="6.68253">
        <ele>1113</ele>
        <time>2019-10-01T10:11:52Z</time>
      </trkpt>
      <trkpt lat="43.97017" lon="6.6826">
        <ele>1115</ele>
        <time>2019-10-01T10:12:02Z</time>
      </trkpt>
      <trkpt lat="43.97025" lon="6.68256">
        <ele>1114</ele>
        <time>2019-10-01T10:12:21Z</time>
      </trkpt>
      <trkpt lat="43.97035" lon="6.68247">
        <ele>1116</ele>
        <time>2019-10-01T10:12:37Z</time>
      </trkpt>
      <trkpt lat="43.97048" lon="6.6824">
        <ele>1117</ele>
        <time>2019-10-01T10:12:49Z</time>
      </trkpt>
      <trkpt lat="43.97058" lon="6.68246">
        <ele>1119</ele>
        <time>2019-10-01T10:12:56Z</time>
      </trkpt>
      <trkpt lat="43.97068" lon="6.68244">
        <ele>1121</ele>
        <time>2019-10-01T10:13:07Z</time>
      </trkpt>
      <trkpt lat="43.97075" lon="6.6824">
        <ele>1118</ele>
        <time>2019-10-01T10:13:18Z</time>
      </trkpt>
      <trkpt lat="43.97085" lon="6.68236">
        <ele>1116</ele>
        <time>2019-10-01T10:13:25Z</time>
      </trkpt>
      <trkpt lat="43.97091" lon="6.68241">
        <ele>1117</ele>
        <time>2019-10-01T10:13:29Z</time>
      </trkpt>
      <trkpt lat="43.97108" lon="6.6824">
        <ele>1116</ele>
        <time>2019-10-01T10:13:41Z</time>
      </trkpt>
      <trkpt lat="43.97115" lon="6.68242">
        <ele>1117</ele>
        <time>2019-10-01T10:13:47Z</time>
      </trkpt>
      <trkpt lat="43.97122" lon="6.68246">
        <ele>1119</ele>
        <time>2019-10-01T10:14:04Z</time>
      </trkpt>
      <trkpt lat="43.97131" lon="6.68245">
        <ele>1118</ele>
        <time>2019-10-01T10:14:11Z</time>
      </trkpt>
      <trkpt lat="43.97143" lon="6.68249">
        <ele>1119</ele>
        <time>2019-10-01T10:14:22Z</time>
      </trkpt>
      <trkpt lat="43.9715" lon="6.6825">
        <ele>1118</ele>
        <time>2019-10-01T10:14:27Z</time>
      </trkpt>
      <trkpt lat="43.97156" lon="6.68253">
        <ele>1117</ele>
        <time>2019-10-01T10:14:36Z</time>
      </trkpt>
      <trkpt lat="43.97164" lon="6.68253">
        <ele>1116</ele>
        <time>2019-10-01T10:14:45Z</time>
      </trkpt>
      <trkpt lat="43.97171" lon="6.68252">
        <ele>1110</ele>
        <time>2019-10-01T10:14:51Z</time>
      </trkpt>
      <trkpt lat="43.97178" lon="6.68252">
        <ele>1109</ele>
        <time>2019-10-01T10:14:58Z</time>
      </trkpt>
      <trkpt lat="43.97185" lon="6.68261">
        <ele>1104</ele>
        <time>2019-10-01T10:15:07Z</time>
      </trkpt>
      <trkpt lat="43.97197" lon="6.6826">
        <ele>1105</ele>
        <time>2019-10-01T10:15:14Z</time>
      </trkpt>
      <trkpt lat="43.97207" lon="6.68263">
        <ele>1099</ele>
        <time>2019-10-01T10:15:29Z</time>
      </trkpt>
      <trkpt lat="43.97214" lon="6.68267">
        <ele>1100</ele>
        <time>2019-10-01T10:15:38Z</time>
      </trkpt>
      <trkpt lat="43.9722" lon="6.68272">
        <ele>1101</ele>
        <time>2019-10-01T10:15:51Z</time>
      </trkpt>
      <trkpt lat="43.97228" lon="6.68271">
        <ele>1101</ele>
        <time>2019-10-01T10:15:58Z</time>
      </trkpt>
      <trkpt lat="43.97235" lon="6.68275">
        <ele>1102</ele>
        <time>2019-10-01T10:16:02Z</time>
      </trkpt>
      <trkpt lat="43.97245" lon="6.68274">
        <ele>1101</ele>
        <time>2019-10-01T10:16:08Z</time>
      </trkpt>
      <trkpt lat="43.97257" lon="6.68286">
        <ele>1102</ele>
        <time>2019-10-01T10:16:30Z</time>
      </trkpt>
      <trkpt lat="43.97266" lon="6.68291">
        <ele>1105</ele>
        <time>2019-10-01T10:16:38Z</time>
      </trkpt>
      <trkpt lat="43.97281" lon="6.68295">
        <ele>1002</ele>
        <time>2019-10-01T10:16:53Z</time>
      </trkpt>
      <trkpt lat="43.97292" lon="6.68291">
        <ele>1043</ele>
        <time>2019-10-01T10:17:04Z</time>
      </trkpt>
      <trkpt lat="43.97301" lon="6.68294">
        <ele>1075</ele>
        <time>2019-10-01T10:17:09Z</time>
      </trkpt>
      <trkpt lat="43.9731" lon="6.68292">
        <ele>1084</ele>
        <time>2019-10-01T10:17:14Z</time>
      </trkpt>
      <trkpt lat="43.97318" lon="6.68298">
        <ele>1101</ele>
        <time>2019-10-01T10:17:25Z</time>
      </trkpt>
      <trkpt lat="43.97321" lon="6.6831">
        <ele>1096</ele>
        <time>2019-10-01T10:17:37Z</time>
      </trkpt>
      <trkpt lat="43.97332" lon="6.68317">
        <ele>1002</ele>
        <time>2019-10-01T10:17:46Z</time>
      </trkpt>
      <trkpt lat="43.97338" lon="6.6831">
        <ele>990</ele>
        <time>2019-10-01T10:17:52Z</time>
      </trkpt>
      <trkpt lat="43.97347" lon="6.68317">
        <ele>973</ele>
        <time>2019-10-01T10:18:08Z</time>
      </trkpt>
      <trkpt lat="43.97368" lon="6.68319">
        <ele>1033</ele>
        <time>2019-10-01T10:18:27Z</time>
      </trkpt>
      <trkpt lat="43.97378" lon="6.6832">
        <ele>1051</ele>
        <time>2019-10-01T10:18:39Z</time>
      </trkpt>
      <trkpt lat="43.97387" lon="6.68324">
        <ele>1047</ele>
        <time>2019-10-01T10:18:58Z</time>
      </trkpt>
      <trkpt lat="43.97397" lon="6.68321">
        <ele>1070</ele>
        <time>2019-10-01T10:19:04Z</time>
      </trkpt>
      <trkpt lat="43.97413" lon="6.68324">
        <ele>1106</ele>
        <time>2019-10-01T10:19:27Z</time>
      </trkpt>
      <trkpt lat="43.97418" lon="6.68322">
        <ele>1105</ele>
        <time>2019-10-01T10:19:31Z</time>
      </trkpt>
      <trkpt lat="43.97423" lon="6.68321">
        <ele>1107</ele>
        <time>2019-10-01T10:19:36Z</time>
      </trkpt>
      <trkpt lat="43.97429" lon="6.68326">
        <ele>1076</ele>
        <time>2019-10-01T10:19:58Z</time>
      </trkpt>
      <trkpt lat="43.97435" lon="6.68332">
        <ele>1075</ele>
        <time>2019-10-01T10:20:08Z</time>
      </trkpt>
      <trkpt lat="43.97444" lon="6.68321">
        <ele>1086</ele>
        <time>2019-10-01T10:20:27Z</time>
      </trkpt>
      <trkpt lat="43.97448" lon="6.68327">
        <ele>1099</ele>
        <time>2019-10-01T10:20:37Z</time>
      </trkpt>
      <trkpt lat="43.97456" lon="6.68332">
        <ele>1068</ele>
        <time>2019-10-01T10:20:51Z</time>
      </trkpt>
      <trkpt lat="43.97462" lon="6.68336">
        <ele>1098</ele>
        <time>2019-10-01T10:20:59Z</time>
      </trkpt>
      <trkpt lat="43.97469" lon="6.68336">
        <ele>1066</ele>
        <time>2019-10-01T10:21:06Z</time>
      </trkpt>
      <trkpt lat="43.97477" lon="6.68339">
        <ele>1098</ele>
        <time>2019-10-01T10:21:28Z</time>
      </trkpt>
      <trkpt lat="43.97486" lon="6.68335">
        <ele>1101</ele>
        <time>2019-10-01T10:21:36Z</time>
      </trkpt>
      <trkpt lat="43.97504" lon="6.68338">
        <ele>1104</ele>
        <time>2019-10-01T10:21:48Z</time>
      </trkpt>
      <trkpt lat="43.9751" lon="6.68344">
        <ele>1104</ele>
        <time>2019-10-01T10:21:56Z</time>
      </trkpt>
      <trkpt lat="43.97517" lon="6.68346">
        <ele>1060</ele>
        <time>2019-10-01T10:22:06Z</time>
      </trkpt>
      <trkpt lat="43.97523" lon="6.68354">
        <ele>1078</ele>
        <time>2019-10-01T10:22:20Z</time>
      </trkpt>
      <trkpt lat="43.97534" lon="6.68358">
        <ele>1082</ele>
        <time>2019-10-01T10:22:28Z</time>
      </trkpt>
      <trkpt lat="43.97544" lon="6.68362">
        <ele>952</ele>
        <time>2019-10-01T10:22:39Z</time>
      </trkpt>
      <trkpt lat="43.97552" lon="6.68366">
        <ele>974</ele>
        <time>2019-10-01T10:23:08Z</time>
      </trkpt>
      <trkpt lat="43.9756" lon="6.68365">
        <ele>984</ele>
        <time>2019-10-01T10:23:15Z</time>
      </trkpt>
      <trkpt lat="43.97567" lon="6.68373">
        <ele>1054</ele>
        <time>2019-10-01T10:23:25Z</time>
      </trkpt>
      <trkpt lat="43.97575" lon="6.68375">
        <ele>1039</ele>
        <time>2019-10-01T10:23:37Z</time>
      </trkpt>
      <trkpt lat="43.9758" lon="6.68379">
        <ele>1051</ele>
        <time>2019-10-01T10:23:45Z</time>
      </trkpt>
      <trkpt lat="43.97586" lon="6.68383">
        <ele>1055</ele>
        <time>2019-10-01T10:23:56Z</time>
      </trkpt>
      <trkpt lat="43.97594" lon="6.68385">
        <ele>1030</ele>
        <time>2019-10-01T10:24:09Z</time>
      </trkpt>
      <trkpt lat="43.97599" lon="6.68381">
        <ele>1026</ele>
        <time>2019-10-01T10:24:13Z</time>
      </trkpt>
      <trkpt lat="43.97606" lon="6.68384">
        <ele>1024</ele>
        <time>2019-10-01T10:24:26Z</time>
      </trkpt>
      <trkpt lat="43.97601" lon="6.68392">
        <ele>1022</ele>
        <time>2019-10-01T10:24:45Z</time>
      </trkpt>
      <trkpt lat="43.97604" lon="6.684">
        <ele>1100</ele>
        <time>2019-10-01T10:25:09Z</time>
      </trkpt>
      <trkpt lat="43.97607" lon="6.68408">
        <ele>1111</ele>
        <time>2019-10-01T10:25:14Z</time>
      </trkpt>
      <trkpt lat="43.97604" lon="6.68419">
        <ele>1125</ele>
        <time>2019-10-01T10:25:21Z</time>
      </trkpt>
      <trkpt lat="43.97605" lon="6.68424">
        <ele>1133</ele>
        <time>2019-10-01T10:26:02Z</time>
      </trkpt>
      <trkpt lat="43.97601" lon="6.68425">
        <ele>1134</ele>
        <time>2019-10-01T10:26:09Z</time>
      </trkpt>
      <trkpt lat="43.97598" lon="6.68421">
        <ele>1131</ele>
        <time>2019-10-01T11:16:19Z</time>
      </trkpt>
      <trkpt lat="43.97598" lon="6.68422">
        <ele>1131</ele>
        <time>2019-10-01T11:16:52Z</time>
      </trkpt>
      <trkpt lat="43.97601" lon="6.68414">
        <ele>1131</ele>
        <time>2019-10-01T11:17:10Z</time>
      </trkpt>
      <trkpt lat="43.97606" lon="6.68407">
        <ele>1124</ele>
        <time>2019-10-01T11:17:27Z</time>
      </trkpt>
      <trkpt lat="43.9761" lon="6.68401">
        <ele>1108</ele>
        <time>2019-10-01T11:17:32Z</time>
      </trkpt>
      <trkpt lat="43.97619" lon="6.68395">
        <ele>1118</ele>
        <time>2019-10-01T11:17:47Z</time>
      </trkpt>
      <trkpt lat="43.97623" lon="6.6839">
        <ele>1086</ele>
        <time>2019-10-01T11:17:54Z</time>
      </trkpt>
      <trkpt lat="43.97629" lon="6.68388">
        <ele>1103</ele>
        <time>2019-10-01T11:18:03Z</time>
      </trkpt>
      <trkpt lat="43.97636" lon="6.6839">
        <ele>1114</ele>
        <time>2019-10-01T11:18:12Z</time>
      </trkpt>
      <trkpt lat="43.97643" lon="6.68386">
        <ele>1083</ele>
        <time>2019-10-01T11:18:27Z</time>
      </trkpt>
      <trkpt lat="43.97651" lon="6.68379">
        <ele>1090</ele>
        <time>2019-10-01T11:18:33Z</time>
      </trkpt>
      <trkpt lat="43.97675" lon="6.68378">
        <ele>1126</ele>
        <time>2019-10-01T11:18:50Z</time>
      </trkpt>
      <trkpt lat="43.97681" lon="6.68376">
        <ele>1096</ele>
        <time>2019-10-01T11:18:59Z</time>
      </trkpt>
      <trkpt lat="43.97685" lon="6.68371">
        <ele>1113</ele>
        <time>2019-10-01T11:19:03Z</time>
      </trkpt>
      <trkpt lat="43.97695" lon="6.68366">
        <ele>1128</ele>
        <time>2019-10-01T11:19:11Z</time>
      </trkpt>
      <trkpt lat="43.97699" lon="6.68362">
        <ele>1130</ele>
        <time>2019-10-01T11:19:14Z</time>
      </trkpt>
      <trkpt lat="43.97703" lon="6.68362">
        <ele>1131</ele>
        <time>2019-10-01T11:19:18Z</time>
      </trkpt>
      <trkpt lat="43.9771" lon="6.68353">
        <ele>1130</ele>
        <time>2019-10-01T11:19:32Z</time>
      </trkpt>
      <trkpt lat="43.9772" lon="6.68357">
        <ele>1131</ele>
        <time>2019-10-01T11:19:39Z</time>
      </trkpt>
      <trkpt lat="43.97732" lon="6.68355">
        <ele>1132</ele>
        <time>2019-10-01T11:19:46Z</time>
      </trkpt>
      <trkpt lat="43.97739" lon="6.68342">
        <ele>1135</ele>
        <time>2019-10-01T11:19:56Z</time>
      </trkpt>
      <trkpt lat="43.97744" lon="6.68345">
        <ele>1063</ele>
        <time>2019-10-01T11:20:05Z</time>
      </trkpt>
      <trkpt lat="43.9775" lon="6.68343">
        <ele>1111</ele>
        <time>2019-10-01T11:20:42Z</time>
      </trkpt>
      <trkpt lat="43.97745" lon="6.68338">
        <ele>1137</ele>
        <time>2019-10-01T11:21:06Z</time>
      </trkpt>
      <trkpt lat="43.97755" lon="6.68334">
        <ele>1131</ele>
        <time>2019-10-01T11:21:23Z</time>
      </trkpt>
      <trkpt lat="43.97764" lon="6.68337">
        <ele>1119</ele>
        <time>2019-10-01T11:21:30Z</time>
      </trkpt>
      <trkpt lat="43.97772" lon="6.68351">
        <ele>1068</ele>
        <time>2019-10-01T11:21:42Z</time>
      </trkpt>
      <trkpt lat="43.97778" lon="6.68357">
        <ele>1116</ele>
        <time>2019-10-01T11:21:47Z</time>
      </trkpt>
      <trkpt lat="43.97784" lon="6.68366">
        <ele>1128</ele>
        <time>2019-10-01T11:21:52Z</time>
      </trkpt>
      <trkpt lat="43.97786" lon="6.68373">
        <ele>1138</ele>
        <time>2019-10-01T11:21:55Z</time>
      </trkpt>
      <trkpt lat="43.9779" lon="6.68378">
        <ele>1141</ele>
        <time>2019-10-01T11:21:59Z</time>
      </trkpt>
      <trkpt lat="43.97797" lon="6.6838">
        <ele>1140</ele>
        <time>2019-10-01T11:22:06Z</time>
      </trkpt>
      <trkpt lat="43.97804" lon="6.68382">
        <ele>1116</ele>
        <time>2019-10-01T11:22:10Z</time>
      </trkpt>
      <trkpt lat="43.9781" lon="6.6838">
        <ele>1107</ele>
        <time>2019-10-01T11:22:14Z</time>
      </trkpt>
      <trkpt lat="43.97814" lon="6.68375">
        <ele>1127</ele>
        <time>2019-10-01T11:22:19Z</time>
      </trkpt>
      <trkpt lat="43.97819" lon="6.68373">
        <ele>1135</ele>
        <time>2019-10-01T11:22:24Z</time>
      </trkpt>
      <trkpt lat="43.97827" lon="6.68382">
        <ele>1089</ele>
        <time>2019-10-01T11:22:52Z</time>
      </trkpt>
      <trkpt lat="43.97835" lon="6.68379">
        <ele>1056</ele>
        <time>2019-10-01T11:23:01Z</time>
      </trkpt>
      <trkpt lat="43.97843" lon="6.68383">
        <ele>1086</ele>
        <time>2019-10-01T11:23:11Z</time>
      </trkpt>
      <trkpt lat="43.9785" lon="6.68381">
        <ele>1095</ele>
        <time>2019-10-01T11:23:19Z</time>
      </trkpt>
      <trkpt lat="43.9787" lon="6.68386">
        <ele>1145</ele>
        <time>2019-10-01T11:23:53Z</time>
      </trkpt>
      <trkpt lat="43.9788" lon="6.68389">
        <ele>1152</ele>
        <time>2019-10-01T11:24:05Z</time>
      </trkpt>
      <trkpt lat="43.97884" lon="6.68395">
        <ele>1152</ele>
        <time>2019-10-01T11:24:09Z</time>
      </trkpt>
      <trkpt lat="43.97895" lon="6.68398">
        <ele>1115</ele>
        <time>2019-10-01T11:24:17Z</time>
      </trkpt>
      <trkpt lat="43.97905" lon="6.68398">
        <ele>1087</ele>
        <time>2019-10-01T11:24:50Z</time>
      </trkpt>
      <trkpt lat="43.97912" lon="6.68393">
        <ele>1106</ele>
        <time>2019-10-01T11:24:58Z</time>
      </trkpt>
      <trkpt lat="43.97916" lon="6.68403">
        <ele>1086</ele>
        <time>2019-10-01T11:25:06Z</time>
      </trkpt>
      <trkpt lat="43.97922" lon="6.68413">
        <ele>1083</ele>
        <time>2019-10-01T11:25:18Z</time>
      </trkpt>
      <trkpt lat="43.97922" lon="6.68425">
        <ele>1058</ele>
        <time>2019-10-01T11:25:24Z</time>
      </trkpt>
      <trkpt lat="43.97929" lon="6.68437">
        <ele>1056</ele>
        <time>2019-10-01T11:25:44Z</time>
      </trkpt>
      <trkpt lat="43.97937" lon="6.68446">
        <ele>1094</ele>
        <time>2019-10-01T11:25:52Z</time>
      </trkpt>
      <trkpt lat="43.97942" lon="6.68456">
        <ele>1099</ele>
        <time>2019-10-01T11:25:58Z</time>
      </trkpt>
      <trkpt lat="43.97949" lon="6.68463">
        <ele>1101</ele>
        <time>2019-10-01T11:26:10Z</time>
      </trkpt>
      <trkpt lat="43.97959" lon="6.68472">
        <ele>1125</ele>
        <time>2019-10-01T11:26:27Z</time>
      </trkpt>
      <trkpt lat="43.97965" lon="6.68483">
        <ele>1083</ele>
        <time>2019-10-01T11:26:47Z</time>
      </trkpt>
      <trkpt lat="43.97976" lon="6.68488">
        <ele>1098</ele>
        <time>2019-10-01T11:26:54Z</time>
      </trkpt>
      <trkpt lat="43.97984" lon="6.685">
        <ele>1067</ele>
        <time>2019-10-01T11:27:02Z</time>
      </trkpt>
      <trkpt lat="43.97991" lon="6.68507">
        <ele>1120</ele>
        <time>2019-10-01T11:27:08Z</time>
      </trkpt>
      <trkpt lat="43.97998" lon="6.68516">
        <ele>1098</ele>
        <time>2019-10-01T11:27:15Z</time>
      </trkpt>
      <trkpt lat="43.98008" lon="6.68513">
        <ele>1094</ele>
        <time>2019-10-01T11:27:26Z</time>
      </trkpt>
      <trkpt lat="43.98018" lon="6.68513">
        <ele>1135</ele>
        <time>2019-10-01T11:27:34Z</time>
      </trkpt>
      <trkpt lat="43.98028" lon="6.68514">
        <ele>1149</ele>
        <time>2019-10-01T11:27:41Z</time>
      </trkpt>
      <trkpt lat="43.98037" lon="6.68509">
        <ele>1071</ele>
        <time>2019-10-01T11:27:53Z</time>
      </trkpt>
      <trkpt lat="43.98044" lon="6.68506">
        <ele>1088</ele>
        <time>2019-10-01T11:27:57Z</time>
      </trkpt>
      <trkpt lat="43.98055" lon="6.68504">
        <ele>1084</ele>
        <time>2019-10-01T11:28:06Z</time>
      </trkpt>
      <trkpt lat="43.98064" lon="6.68503">
        <ele>1104</ele>
        <time>2019-10-01T11:28:11Z</time>
      </trkpt>
      <trkpt lat="43.98082" lon="6.68506">
        <ele>1104</ele>
        <time>2019-10-01T11:28:37Z</time>
      </trkpt>
      <trkpt lat="43.98105" lon="6.68505">
        <ele>1030</ele>
        <time>2019-10-01T11:29:01Z</time>
      </trkpt>
      <trkpt lat="43.98112" lon="6.68504">
        <ele>1043</ele>
        <time>2019-10-01T11:29:09Z</time>
      </trkpt>
      <trkpt lat="43.98125" lon="6.68496">
        <ele>1063</ele>
        <time>2019-10-01T11:29:28Z</time>
      </trkpt>
      <trkpt lat="43.98146" lon="6.68503">
        <ele>1022</ele>
        <time>2019-10-01T11:29:41Z</time>
      </trkpt>
      <trkpt lat="43.98154" lon="6.68504">
        <ele>1012</ele>
        <time>2019-10-01T11:29:53Z</time>
      </trkpt>
      <trkpt lat="43.98164" lon="6.68495">
        <ele>1011</ele>
        <time>2019-10-01T11:30:11Z</time>
      </trkpt>
      <trkpt lat="43.98173" lon="6.68489">
        <ele>1095</ele>
        <time>2019-10-01T11:30:22Z</time>
      </trkpt>
      <trkpt lat="43.9817" lon="6.68474">
        <ele>1072</ele>
        <time>2019-10-01T11:30:38Z</time>
      </trkpt>
      <trkpt lat="43.98165" lon="6.68465">
        <ele>1114</ele>
        <time>2019-10-01T11:30:42Z</time>
      </trkpt>
      <trkpt lat="43.98163" lon="6.68452">
        <ele>1132</ele>
        <time>2019-10-01T11:30:51Z</time>
      </trkpt>
      <trkpt lat="43.98158" lon="6.68442">
        <ele>1143</ele>
        <time>2019-10-01T11:31:01Z</time>
      </trkpt>
      <trkpt lat="43.98153" lon="6.68434">
        <ele>1057</ele>
        <time>2019-10-01T11:31:11Z</time>
      </trkpt>
      <trkpt lat="43.9815" lon="6.68424">
        <ele>1031</ele>
        <time>2019-10-01T11:31:17Z</time>
      </trkpt>
      <trkpt lat="43.98143" lon="6.68414">
        <ele>1082</ele>
        <time>2019-10-01T11:31:33Z</time>
      </trkpt>
      <trkpt lat="43.98136" lon="6.68407">
        <ele>1126</ele>
        <time>2019-10-01T11:31:43Z</time>
      </trkpt>
      <trkpt lat="43.98133" lon="6.68393">
        <ele>1113</ele>
        <time>2019-10-01T11:31:53Z</time>
      </trkpt>
      <trkpt lat="43.98136" lon="6.68379">
        <ele>1096</ele>
        <time>2019-10-01T11:32:03Z</time>
      </trkpt>
      <trkpt lat="43.98132" lon="6.68369">
        <ele>1071</ele>
        <time>2019-10-01T11:32:17Z</time>
      </trkpt>
      <trkpt lat="43.9813" lon="6.68356">
        <ele>1079</ele>
        <time>2019-10-01T11:32:28Z</time>
      </trkpt>
      <trkpt lat="43.98136" lon="6.68347">
        <ele>1101</ele>
        <time>2019-10-01T11:32:36Z</time>
      </trkpt>
      <trkpt lat="43.98142" lon="6.68342">
        <ele>1123</ele>
        <time>2019-10-01T11:32:53Z</time>
      </trkpt>
      <trkpt lat="43.98151" lon="6.68333">
        <ele>1129</ele>
        <time>2019-10-01T11:33:03Z</time>
      </trkpt>
      <trkpt lat="43.98158" lon="6.68311">
        <ele>1139</ele>
        <time>2019-10-01T11:33:31Z</time>
      </trkpt>
      <trkpt lat="43.98165" lon="6.68302">
        <ele>1134</ele>
        <time>2019-10-01T11:33:42Z</time>
      </trkpt>
      <trkpt lat="43.98182" lon="6.68275">
        <ele>1094</ele>
        <time>2019-10-01T11:34:03Z</time>
      </trkpt>
      <trkpt lat="43.982" lon="6.68265">
        <ele>1125</ele>
        <time>2019-10-01T11:34:17Z</time>
      </trkpt>
      <trkpt lat="43.98206" lon="6.68259">
        <ele>1133</ele>
        <time>2019-10-01T11:34:24Z</time>
      </trkpt>
      <trkpt lat="43.98214" lon="6.68255">
        <ele>1125</ele>
        <time>2019-10-01T11:34:30Z</time>
      </trkpt>
      <trkpt lat="43.98223" lon="6.68243">
        <ele>1102</ele>
        <time>2019-10-01T11:34:36Z</time>
      </trkpt>
      <trkpt lat="43.98223" lon="6.68233">
        <ele>1112</ele>
        <time>2019-10-01T11:34:39Z</time>
      </trkpt>
      <trkpt lat="43.98224" lon="6.68222">
        <ele>1089</ele>
        <time>2019-10-01T11:34:49Z</time>
      </trkpt>
      <trkpt lat="43.98234" lon="6.68223">
        <ele>1069</ele>
        <time>2019-10-01T11:34:59Z</time>
      </trkpt>
      <trkpt lat="43.98249" lon="6.68198">
        <ele>1127</ele>
        <time>2019-10-01T11:35:32Z</time>
      </trkpt>
      <trkpt lat="43.98255" lon="6.68184">
        <ele>1138</ele>
        <time>2019-10-01T11:35:39Z</time>
      </trkpt>
      <trkpt lat="43.98256" lon="6.6817">
        <ele>1143</ele>
        <time>2019-10-01T11:35:49Z</time>
      </trkpt>
      <trkpt lat="43.98259" lon="6.6815">
        <ele>1142</ele>
        <time>2019-10-01T11:36:07Z</time>
      </trkpt>
      <trkpt lat="43.98252" lon="6.68132">
        <ele>1128</ele>
        <time>2019-10-01T11:36:21Z</time>
      </trkpt>
      <trkpt lat="43.98256" lon="6.68112">
        <ele>1110</ele>
        <time>2019-10-01T11:36:42Z</time>
      </trkpt>
      <trkpt lat="43.98269" lon="6.68098">
        <ele>1111</ele>
        <time>2019-10-01T11:37:00Z</time>
      </trkpt>
      <trkpt lat="43.98282" lon="6.68101">
        <ele>1113</ele>
        <time>2019-10-01T11:37:19Z</time>
      </trkpt>
      <trkpt lat="43.98287" lon="6.68091">
        <ele>1136</ele>
        <time>2019-10-01T11:37:29Z</time>
      </trkpt>
      <trkpt lat="43.98294" lon="6.68078">
        <ele>1112</ele>
        <time>2019-10-01T11:37:40Z</time>
      </trkpt>
      <trkpt lat="43.98306" lon="6.68078">
        <ele>1092</ele>
        <time>2019-10-01T11:37:48Z</time>
      </trkpt>
      <trkpt lat="43.98315" lon="6.6807">
        <ele>1067</ele>
        <time>2019-10-01T11:37:56Z</time>
      </trkpt>
      <trkpt lat="43.98322" lon="6.68062">
        <ele>1075</ele>
        <time>2019-10-01T11:38:01Z</time>
      </trkpt>
      <trkpt lat="43.98317" lon="6.68056">
        <ele>1092</ele>
        <time>2019-10-01T11:38:05Z</time>
      </trkpt>
      <trkpt lat="43.98315" lon="6.68049">
        <ele>1128</ele>
        <time>2019-10-01T11:38:09Z</time>
      </trkpt>
      <trkpt lat="43.98311" lon="6.68043">
        <ele>1135</ele>
        <time>2019-10-01T11:38:14Z</time>
      </trkpt>
      <trkpt lat="43.98317" lon="6.68036">
        <ele>1145</ele>
        <time>2019-10-01T11:38:19Z</time>
      </trkpt>
      <trkpt lat="43.98324" lon="6.68027">
        <ele>1117</ele>
        <time>2019-10-01T11:38:26Z</time>
      </trkpt>
      <trkpt lat="43.98331" lon="6.68014">
        <ele>1118</ele>
        <time>2019-10-01T11:38:35Z</time>
      </trkpt>
      <trkpt lat="43.98338" lon="6.68002">
        <ele>1094</ele>
        <time>2019-10-01T11:38:44Z</time>
      </trkpt>
      <trkpt lat="43.98346" lon="6.67993">
        <ele>1130</ele>
        <time>2019-10-01T11:38:58Z</time>
      </trkpt>
      <trkpt lat="43.98351" lon="6.67979">
        <ele>1067</ele>
        <time>2019-10-01T11:39:06Z</time>
      </trkpt>
      <trkpt lat="43.98355" lon="6.67964">
        <ele>1113</ele>
        <time>2019-10-01T11:39:14Z</time>
      </trkpt>
      <trkpt lat="43.98361" lon="6.67955">
        <ele>1144</ele>
        <time>2019-10-01T11:39:34Z</time>
      </trkpt>
      <trkpt lat="43.98362" lon="6.67946">
        <ele>1150</ele>
        <time>2019-10-01T11:39:39Z</time>
      </trkpt>
      <trkpt lat="43.98357" lon="6.67939">
        <ele>1114</ele>
        <time>2019-10-01T11:39:50Z</time>
      </trkpt>
      <trkpt lat="43.98361" lon="6.67929">
        <ele>1124</ele>
        <time>2019-10-01T11:39:58Z</time>
      </trkpt>
      <trkpt lat="43.98364" lon="6.67915">
        <ele>1142</ele>
        <time>2019-10-01T11:40:10Z</time>
      </trkpt>
      <trkpt lat="43.98375" lon="6.67916">
        <ele>1089</ele>
        <time>2019-10-01T11:40:17Z</time>
      </trkpt>
      <trkpt lat="43.98384" lon="6.6791">
        <ele>1114</ele>
        <time>2019-10-01T11:40:28Z</time>
      </trkpt>
      <trkpt lat="43.98394" lon="6.67915">
        <ele>1123</ele>
        <time>2019-10-01T11:40:40Z</time>
      </trkpt>
      <trkpt lat="43.9841" lon="6.67907">
        <ele>1132</ele>
        <time>2019-10-01T11:41:04Z</time>
      </trkpt>
      <trkpt lat="43.9842" lon="6.679">
        <ele>1144</ele>
        <time>2019-10-01T11:41:13Z</time>
      </trkpt>
      <trkpt lat="43.98427" lon="6.6789">
        <ele>1150</ele>
        <time>2019-10-01T11:41:24Z</time>
      </trkpt>
      <trkpt lat="43.98439" lon="6.67893">
        <ele>1152</ele>
        <time>2019-10-01T11:41:49Z</time>
      </trkpt>
      <trkpt lat="43.98448" lon="6.67894">
        <ele>1156</ele>
        <time>2019-10-01T11:41:58Z</time>
      </trkpt>
      <trkpt lat="43.98455" lon="6.67898">
        <ele>1157</ele>
        <time>2019-10-01T11:42:11Z</time>
      </trkpt>
      <trkpt lat="43.98462" lon="6.67905">
        <ele>1160</ele>
        <time>2019-10-01T11:42:22Z</time>
      </trkpt>
      <trkpt lat="43.9847" lon="6.67914">
        <ele>1160</ele>
        <time>2019-10-01T11:42:39Z</time>
      </trkpt>
      <trkpt lat="43.98477" lon="6.67913">
        <ele>1157</ele>
        <time>2019-10-01T11:42:49Z</time>
      </trkpt>
      <trkpt lat="43.98486" lon="6.67919">
        <ele>1155</ele>
        <time>2019-10-01T11:42:59Z</time>
      </trkpt>
      <trkpt lat="43.98495" lon="6.67928">
        <ele>1159</ele>
        <time>2019-10-01T11:43:13Z</time>
      </trkpt>
      <trkpt lat="43.98501" lon="6.67936">
        <ele>1144</ele>
        <time>2019-10-01T11:43:20Z</time>
      </trkpt>
      <trkpt lat="43.98511" lon="6.67937">
        <ele>1126</ele>
        <time>2019-10-01T11:43:31Z</time>
      </trkpt>
      <trkpt lat="43.98514" lon="6.67943">
        <ele>1143</ele>
        <time>2019-10-01T11:43:36Z</time>
      </trkpt>
      <trkpt lat="43.98519" lon="6.67951">
        <ele>1158</ele>
        <time>2019-10-01T11:43:44Z</time>
      </trkpt>
      <trkpt lat="43.98527" lon="6.67958">
        <ele>1098</ele>
        <time>2019-10-01T11:43:58Z</time>
      </trkpt>
      <trkpt lat="43.98542" lon="6.67951">
        <ele>1111</ele>
        <time>2019-10-01T11:44:12Z</time>
      </trkpt>
      <trkpt lat="43.98547" lon="6.67945">
        <ele>1142</ele>
        <time>2019-10-01T11:44:17Z</time>
      </trkpt>
      <trkpt lat="43.98548" lon="6.67936">
        <ele>1106</ele>
        <time>2019-10-01T11:44:22Z</time>
      </trkpt>
      <trkpt lat="43.98552" lon="6.67925">
        <ele>1110</ele>
        <time>2019-10-01T11:44:41Z</time>
      </trkpt>
      <trkpt lat="43.98553" lon="6.67909">
        <ele>1134</ele>
        <time>2019-10-01T11:44:55Z</time>
      </trkpt>
      <trkpt lat="43.98559" lon="6.67898">
        <ele>1148</ele>
        <time>2019-10-01T11:45:03Z</time>
      </trkpt>
      <trkpt lat="43.98559" lon="6.67892">
        <ele>1174</ele>
        <time>2019-10-01T11:45:44Z</time>
      </trkpt>
      <trkpt lat="43.98559" lon="6.67879">
        <ele>1179</ele>
        <time>2019-10-01T11:47:31Z</time>
      </trkpt>
      <trkpt lat="43.98561" lon="6.67868">
        <ele>1133</ele>
        <time>2019-10-01T11:47:39Z</time>
      </trkpt>
      <trkpt lat="43.98562" lon="6.67857">
        <ele>1137</ele>
        <time>2019-10-01T11:47:45Z</time>
      </trkpt>
      <trkpt lat="43.98559" lon="6.6785">
        <ele>1140</ele>
        <time>2019-10-01T11:47:52Z</time>
      </trkpt>
      <trkpt lat="43.98554" lon="6.67847">
        <ele>1160</ele>
        <time>2019-10-01T11:47:57Z</time>
      </trkpt>
      <trkpt lat="43.9855" lon="6.67841">
        <ele>1146</ele>
        <time>2019-10-01T11:48:01Z</time>
      </trkpt>
      <trkpt lat="43.98547" lon="6.67836">
        <ele>1161</ele>
        <time>2019-10-01T11:48:06Z</time>
      </trkpt>
      <trkpt lat="43.98539" lon="6.67824">
        <ele>1180</ele>
        <time>2019-10-01T11:48:16Z</time>
      </trkpt>
      <trkpt lat="43.98537" lon="6.67817">
        <ele>1182</ele>
        <time>2019-10-01T11:48:26Z</time>
      </trkpt>
      <trkpt lat="43.98537" lon="6.67807">
        <ele>1180</ele>
        <time>2019-10-01T11:48:35Z</time>
      </trkpt>
      <trkpt lat="43.98531" lon="6.67796">
        <ele>1180</ele>
        <time>2019-10-01T11:48:46Z</time>
      </trkpt>
      <trkpt lat="43.98531" lon="6.67789">
        <ele>1126</ele>
        <time>2019-10-01T11:48:58Z</time>
      </trkpt>
      <trkpt lat="43.9853" lon="6.67774">
        <ele>1145</ele>
        <time>2019-10-01T11:49:09Z</time>
      </trkpt>
      <trkpt lat="43.98532" lon="6.67765">
        <ele>1163</ele>
        <time>2019-10-01T11:49:14Z</time>
      </trkpt>
      <trkpt lat="43.98526" lon="6.67752">
        <ele>1143</ele>
        <time>2019-10-01T11:49:26Z</time>
      </trkpt>
      <trkpt lat="43.98524" lon="6.67744">
        <ele>1127</ele>
        <time>2019-10-01T11:49:32Z</time>
      </trkpt>
      <trkpt lat="43.98519" lon="6.67739">
        <ele>1144</ele>
        <time>2019-10-01T11:49:38Z</time>
      </trkpt>
      <trkpt lat="43.98513" lon="6.67735">
        <ele>1133</ele>
        <time>2019-10-01T11:49:44Z</time>
      </trkpt>
      <trkpt lat="43.98508" lon="6.67728">
        <ele>1112</ele>
        <time>2019-10-01T11:50:05Z</time>
      </trkpt>
      <trkpt lat="43.98503" lon="6.67722">
        <ele>1083</ele>
        <time>2019-10-01T11:50:11Z</time>
      </trkpt>
      <trkpt lat="43.985" lon="6.67714">
        <ele>1102</ele>
        <time>2019-10-01T11:50:19Z</time>
      </trkpt>
      <trkpt lat="43.98503" lon="6.67704">
        <ele>1111</ele>
        <time>2019-10-01T11:50:27Z</time>
      </trkpt>
      <trkpt lat="43.98502" lon="6.67694">
        <ele>1144</ele>
        <time>2019-10-01T11:50:34Z</time>
      </trkpt>
      <trkpt lat="43.985" lon="6.67687">
        <ele>1160</ele>
        <time>2019-10-01T11:51:01Z</time>
      </trkpt>
      <trkpt lat="43.98496" lon="6.67683">
        <ele>1165</ele>
        <time>2019-10-01T11:51:24Z</time>
      </trkpt>
      <trkpt lat="43.98491" lon="6.67683">
        <ele>1168</ele>
        <time>2019-10-01T11:51:27Z</time>
      </trkpt>
      <trkpt lat="43.98486" lon="6.67682">
        <ele>1129</ele>
        <time>2019-10-01T11:51:32Z</time>
      </trkpt>
      <trkpt lat="43.9848" lon="6.67683">
        <ele>1141</ele>
        <time>2019-10-01T11:51:39Z</time>
      </trkpt>
      <trkpt lat="43.98474" lon="6.67681">
        <ele>1152</ele>
        <time>2019-10-01T11:51:47Z</time>
      </trkpt>
      <trkpt lat="43.98469" lon="6.67678">
        <ele>1103</ele>
        <time>2019-10-01T11:51:52Z</time>
      </trkpt>
      <trkpt lat="43.98465" lon="6.67675">
        <ele>1133</ele>
        <time>2019-10-01T11:51:58Z</time>
      </trkpt>
      <trkpt lat="43.98459" lon="6.67678">
        <ele>1146</ele>
        <time>2019-10-01T11:52:03Z</time>
      </trkpt>
      <trkpt lat="43.98454" lon="6.67681">
        <ele>1100</ele>
        <time>2019-10-01T11:52:10Z</time>
      </trkpt>
      <trkpt lat="43.98448" lon="6.6768">
        <ele>1108</ele>
        <time>2019-10-01T11:52:15Z</time>
      </trkpt>
      <trkpt lat="43.9844" lon="6.67677">
        <ele>1139</ele>
        <time>2019-10-01T11:52:23Z</time>
      </trkpt>
      <trkpt lat="43.98432" lon="6.67671">
        <ele>1118</ele>
        <time>2019-10-01T11:52:39Z</time>
      </trkpt>
      <trkpt lat="43.98424" lon="6.67671">
        <ele>1141</ele>
        <time>2019-10-01T11:52:45Z</time>
      </trkpt>
      <trkpt lat="43.98417" lon="6.67671">
        <ele>1098</ele>
        <time>2019-10-01T11:53:06Z</time>
      </trkpt>
      <trkpt lat="43.98409" lon="6.67668">
        <ele>1093</ele>
        <time>2019-10-01T11:53:15Z</time>
      </trkpt>
      <trkpt lat="43.98405" lon="6.6767">
        <ele>1139</ele>
        <time>2019-10-01T11:54:21Z</time>
      </trkpt>
      <trkpt lat="43.98402" lon="6.67683">
        <ele>1123</ele>
        <time>2019-10-01T11:54:45Z</time>
      </trkpt>
      <trkpt lat="43.98396" lon="6.67684">
        <ele>1131</ele>
        <time>2019-10-01T11:55:06Z</time>
      </trkpt>
      <trkpt lat="43.98392" lon="6.67682">
        <ele>1142</ele>
        <time>2019-10-01T11:55:11Z</time>
      </trkpt>
      <trkpt lat="43.98389" lon="6.67675">
        <ele>1138</ele>
        <time>2019-10-01T11:56:52Z</time>
      </trkpt>
      <trkpt lat="43.98384" lon="6.67673">
        <ele>1135</ele>
        <time>2019-10-01T11:57:27Z</time>
      </trkpt>
      <trkpt lat="43.98378" lon="6.67675">
        <ele>1141</ele>
        <time>2019-10-01T11:57:34Z</time>
      </trkpt>
      <trkpt lat="43.98376" lon="6.6768">
        <ele>1114</ele>
        <time>2019-10-01T11:57:49Z</time>
      </trkpt>
      <trkpt lat="43.98382" lon="6.67684">
        <ele>1105</ele>
        <time>2019-10-01T11:58:01Z</time>
      </trkpt>
      <trkpt lat="43.98393" lon="6.67692">
        <ele>1100</ele>
        <time>2019-10-01T11:58:17Z</time>
      </trkpt>
      <trkpt lat="43.98399" lon="6.67704">
        <ele>1091</ele>
        <time>2019-10-01T11:58:29Z</time>
      </trkpt>
      <trkpt lat="43.98399" lon="6.67713">
        <ele>1029</ele>
        <time>2019-10-01T11:58:40Z</time>
      </trkpt>
      <trkpt lat="43.98392" lon="6.67711">
        <ele>1088</ele>
        <time>2019-10-01T11:59:21Z</time>
      </trkpt>
      <trkpt lat="43.98386" lon="6.67711">
        <ele>1037</ele>
        <time>2019-10-01T11:59:29Z</time>
      </trkpt>
      <trkpt lat="43.98381" lon="6.67708">
        <ele>1052</ele>
        <time>2019-10-01T11:59:33Z</time>
      </trkpt>
      <trkpt lat="43.98377" lon="6.67707">
        <ele>1105</ele>
        <time>2019-10-01T11:59:38Z</time>
      </trkpt>
      <trkpt lat="43.98367" lon="6.67712">
        <ele>1124</ele>
        <time>2019-10-01T12:00:06Z</time>
      </trkpt>
      <trkpt lat="43.98361" lon="6.67713">
        <ele>1123</ele>
        <time>2019-10-01T12:00:11Z</time>
      </trkpt>
      <trkpt lat="43.98355" lon="6.67709">
        <ele>1123</ele>
        <time>2019-10-01T12:00:18Z</time>
      </trkpt>
      <trkpt lat="43.98346" lon="6.67708">
        <ele>1045</ele>
        <time>2019-10-01T12:00:30Z</time>
      </trkpt>
      <trkpt lat="43.98337" lon="6.67708">
        <ele>1071</ele>
        <time>2019-10-01T12:00:42Z</time>
      </trkpt>
      <trkpt lat="43.98331" lon="6.67713">
        <ele>1057</ele>
        <time>2019-10-01T12:00:52Z</time>
      </trkpt>
      <trkpt lat="43.98318" lon="6.67718">
        <ele>1059</ele>
        <time>2019-10-01T12:01:02Z</time>
      </trkpt>
      <trkpt lat="43.98312" lon="6.67726">
        <ele>1089</ele>
        <time>2019-10-01T12:01:15Z</time>
      </trkpt>
      <trkpt lat="43.98303" lon="6.67727">
        <ele>1095</ele>
        <time>2019-10-01T12:01:23Z</time>
      </trkpt>
      <trkpt lat="43.98297" lon="6.67725">
        <ele>1063</ele>
        <time>2019-10-01T12:01:29Z</time>
      </trkpt>
      <trkpt lat="43.9829" lon="6.67725">
        <ele>1032</ele>
        <time>2019-10-01T12:01:41Z</time>
      </trkpt>
      <trkpt lat="43.98273" lon="6.67722">
        <ele>1063</ele>
        <time>2019-10-01T12:01:58Z</time>
      </trkpt>
      <trkpt lat="43.98264" lon="6.67721">
        <ele>1086</ele>
        <time>2019-10-01T12:02:07Z</time>
      </trkpt>
      <trkpt lat="43.98254" lon="6.67717">
        <ele>1021</ele>
        <time>2019-10-01T12:02:15Z</time>
      </trkpt>
      <trkpt lat="43.98249" lon="6.6772">
        <ele>1009</ele>
        <time>2019-10-01T12:02:24Z</time>
      </trkpt>
      <trkpt lat="43.98242" lon="6.67726">
        <ele>1027</ele>
        <time>2019-10-01T12:02:31Z</time>
      </trkpt>
      <trkpt lat="43.98237" lon="6.67728">
        <ele>1049</ele>
        <time>2019-10-01T12:02:40Z</time>
      </trkpt>
      <trkpt lat="43.9823" lon="6.67734">
        <ele>1014</ele>
        <time>2019-10-01T12:02:53Z</time>
      </trkpt>
      <trkpt lat="43.98225" lon="6.67737">
        <ele>1012</ele>
        <time>2019-10-01T12:03:03Z</time>
      </trkpt>
      <trkpt lat="43.98221" lon="6.67741">
        <ele>1069</ele>
        <time>2019-10-01T12:03:10Z</time>
      </trkpt>
      <trkpt lat="43.98218" lon="6.67744">
        <ele>1079</ele>
        <time>2019-10-01T12:03:13Z</time>
      </trkpt>
      <trkpt lat="43.98212" lon="6.67749">
        <ele>1088</ele>
        <time>2019-10-01T12:03:18Z</time>
      </trkpt>
      <trkpt lat="43.98208" lon="6.67756">
        <ele>1090</ele>
        <time>2019-10-01T12:03:22Z</time>
      </trkpt>
      <trkpt lat="43.98205" lon="6.67764">
        <ele>1029</ele>
        <time>2019-10-01T12:03:32Z</time>
      </trkpt>
      <trkpt lat="43.98194" lon="6.67771">
        <ele>1069</ele>
        <time>2019-10-01T12:03:44Z</time>
      </trkpt>
      <trkpt lat="43.9819" lon="6.67776">
        <ele>1041</ele>
        <time>2019-10-01T12:03:53Z</time>
      </trkpt>
      <trkpt lat="43.98182" lon="6.67789">
        <ele>1066</ele>
        <time>2019-10-01T12:04:13Z</time>
      </trkpt>
      <trkpt lat="43.98178" lon="6.67795">
        <ele>1071</ele>
        <time>2019-10-01T12:04:19Z</time>
      </trkpt>
      <trkpt lat="43.98174" lon="6.67795">
        <ele>1070</ele>
        <time>2019-10-01T12:04:25Z</time>
      </trkpt>
      <trkpt lat="43.98172" lon="6.678">
        <ele>1069</ele>
        <time>2019-10-01T12:04:36Z</time>
      </trkpt>
      <trkpt lat="43.98165" lon="6.67803">
        <ele>1069</ele>
        <time>2019-10-01T12:04:43Z</time>
      </trkpt>
      <trkpt lat="43.98157" lon="6.67807">
        <ele>1003</ele>
        <time>2019-10-01T12:04:54Z</time>
      </trkpt>
      <trkpt lat="43.98153" lon="6.67809">
        <ele>1021</ele>
        <time>2019-10-01T12:04:59Z</time>
      </trkpt>
      <trkpt lat="43.98149" lon="6.67814">
        <ele>1050</ele>
        <time>2019-10-01T12:05:03Z</time>
      </trkpt>
      <trkpt lat="43.98144" lon="6.67818">
        <ele>1062</ele>
        <time>2019-10-01T12:05:10Z</time>
      </trkpt>
      <trkpt lat="43.98137" lon="6.67821">
        <ele>1063</ele>
        <time>2019-10-01T12:05:16Z</time>
      </trkpt>
      <trkpt lat="43.98128" lon="6.67822">
        <ele>996</ele>
        <time>2019-10-01T12:05:22Z</time>
      </trkpt>
      <trkpt lat="43.98123" lon="6.67823">
        <ele>1040</ele>
        <time>2019-10-01T12:05:28Z</time>
      </trkpt>
      <trkpt lat="43.98121" lon="6.67827">
        <ele>1047</ele>
        <time>2019-10-01T12:05:31Z</time>
      </trkpt>
      <trkpt lat="43.98117" lon="6.67831">
        <ele>1062</ele>
        <time>2019-10-01T12:05:40Z</time>
      </trkpt>
      <trkpt lat="43.98112" lon="6.67835">
        <ele>1066</ele>
        <time>2019-10-01T12:05:53Z</time>
      </trkpt>
      <trkpt lat="43.98108" lon="6.67837">
        <ele>1066</ele>
        <time>2019-10-01T12:06:00Z</time>
      </trkpt>
      <trkpt lat="43.98104" lon="6.6784">
        <ele>1067</ele>
        <time>2019-10-01T12:06:04Z</time>
      </trkpt>
      <trkpt lat="43.98093" lon="6.67852">
        <ele>1065</ele>
        <time>2019-10-01T12:06:15Z</time>
      </trkpt>
      <trkpt lat="43.98089" lon="6.67855">
        <ele>1063</ele>
        <time>2019-10-01T12:06:18Z</time>
      </trkpt>
      <trkpt lat="43.98085" lon="6.67853">
        <ele>1056</ele>
        <time>2019-10-01T12:06:31Z</time>
      </trkpt>
      <trkpt lat="43.98079" lon="6.6785">
        <ele>1056</ele>
        <time>2019-10-01T12:06:38Z</time>
      </trkpt>
      <trkpt lat="43.98065" lon="6.67847">
        <ele>1022</ele>
        <time>2019-10-01T12:06:56Z</time>
      </trkpt>
      <trkpt lat="43.98061" lon="6.67845">
        <ele>1001</ele>
        <time>2019-10-01T12:07:02Z</time>
      </trkpt>
      <trkpt lat="43.98068" lon="6.67852">
        <ele>1019</ele>
        <time>2019-10-01T12:07:16Z</time>
      </trkpt>
      <trkpt lat="43.98068" lon="6.67867">
        <ele>1006</ele>
        <time>2019-10-01T12:07:29Z</time>
      </trkpt>
      <trkpt lat="43.98061" lon="6.67869">
        <ele>1025</ele>
        <time>2019-10-01T12:07:40Z</time>
      </trkpt>
      <trkpt lat="43.98058" lon="6.67863">
        <ele>990</ele>
        <time>2019-10-01T12:07:49Z</time>
      </trkpt>
      <trkpt lat="43.98052" lon="6.6786">
        <ele>995</ele>
        <time>2019-10-01T12:07:55Z</time>
      </trkpt>
      <trkpt lat="43.9805" lon="6.67861">
        <ele>1003</ele>
        <time>2019-10-01T12:08:10Z</time>
      </trkpt>
      <trkpt lat="43.98044" lon="6.67861">
        <ele>1000</ele>
        <time>2019-10-01T12:08:24Z</time>
      </trkpt>
      <trkpt lat="43.98041" lon="6.67854">
        <ele>996</ele>
        <time>2019-10-01T12:08:31Z</time>
      </trkpt>
      <trkpt lat="43.98036" lon="6.6785">
        <ele>1008</ele>
        <time>2019-10-01T12:08:38Z</time>
      </trkpt>
      <trkpt lat="43.98032" lon="6.67847">
        <ele>992</ele>
        <time>2019-10-01T12:08:48Z</time>
      </trkpt>
      <trkpt lat="43.98028" lon="6.67845">
        <ele>1015</ele>
        <time>2019-10-01T12:08:54Z</time>
      </trkpt>
      <trkpt lat="43.98021" lon="6.67842">
        <ele>1026</ele>
        <time>2019-10-01T12:09:05Z</time>
      </trkpt>
      <trkpt lat="43.98016" lon="6.6784">
        <ele>1027</ele>
        <time>2019-10-01T12:09:09Z</time>
      </trkpt>
      <trkpt lat="43.9801" lon="6.67837">
        <ele>1026</ele>
        <time>2019-10-01T12:09:16Z</time>
      </trkpt>
      <trkpt lat="43.98003" lon="6.67833">
        <ele>994</ele>
        <time>2019-10-01T12:09:25Z</time>
      </trkpt>
      <trkpt lat="43.97998" lon="6.67832">
        <ele>1004</ele>
        <time>2019-10-01T12:09:31Z</time>
      </trkpt>
      <trkpt lat="43.97993" lon="6.67821">
        <ele>996</ele>
        <time>2019-10-01T12:09:40Z</time>
      </trkpt>
      <trkpt lat="43.97989" lon="6.67812">
        <ele>975</ele>
        <time>2019-10-01T12:09:49Z</time>
      </trkpt>
      <trkpt lat="43.97983" lon="6.6781">
        <ele>991</ele>
        <time>2019-10-01T12:09:55Z</time>
      </trkpt>
      <trkpt lat="43.9798" lon="6.67805">
        <ele>1009</ele>
        <time>2019-10-01T12:10:00Z</time>
      </trkpt>
      <trkpt lat="43.97974" lon="6.67795">
        <ele>1023</ele>
        <time>2019-10-01T12:10:10Z</time>
      </trkpt>
      <trkpt lat="43.97969" lon="6.67793">
        <ele>1024</ele>
        <time>2019-10-01T12:10:14Z</time>
      </trkpt>
      <trkpt lat="43.97961" lon="6.67785">
        <ele>1025</ele>
        <time>2019-10-01T12:10:26Z</time>
      </trkpt>
      <trkpt lat="43.97958" lon="6.67782">
        <ele>1006</ele>
        <time>2019-10-01T12:10:33Z</time>
      </trkpt>
      <trkpt lat="43.97949" lon="6.67764">
        <ele>1012</ele>
        <time>2019-10-01T12:10:51Z</time>
      </trkpt>
      <trkpt lat="43.97944" lon="6.67759">
        <ele>996</ele>
        <time>2019-10-01T12:11:02Z</time>
      </trkpt>
      <trkpt lat="43.9794" lon="6.67754">
        <ele>1005</ele>
        <time>2019-10-01T12:11:13Z</time>
      </trkpt>
      <trkpt lat="43.97938" lon="6.67749">
        <ele>1011</ele>
        <time>2019-10-01T12:11:19Z</time>
      </trkpt>
      <trkpt lat="43.97936" lon="6.67744">
        <ele>1015</ele>
        <time>2019-10-01T12:11:31Z</time>
      </trkpt>
      <trkpt lat="43.97933" lon="6.67739">
        <ele>1014</ele>
        <time>2019-10-01T12:11:34Z</time>
      </trkpt>
      <trkpt lat="43.9793" lon="6.67735">
        <ele>1014</ele>
        <time>2019-10-01T12:11:39Z</time>
      </trkpt>
      <trkpt lat="43.97932" lon="6.67739">
        <ele>1008</ele>
        <time>2019-10-01T12:17:55Z</time>
      </trkpt>
      <trkpt lat="43.97934" lon="6.67754">
        <ele>979</ele>
        <time>2019-10-01T12:18:25Z</time>
      </trkpt>
      <trkpt lat="43.97939" lon="6.67761">
        <ele>986</ele>
        <time>2019-10-01T12:18:33Z</time>
      </trkpt>
      <trkpt lat="43.97935" lon="6.67757">
        <ele>983</ele>
        <time>2019-10-01T12:20:28Z</time>
      </trkpt>
      <trkpt lat="43.97934" lon="6.67749">
        <ele>998</ele>
        <time>2019-10-01T12:20:45Z</time>
      </trkpt>
      <trkpt lat="43.9793" lon="6.67742">
        <ele>1002</ele>
        <time>2019-10-01T12:20:52Z</time>
      </trkpt>
      <trkpt lat="43.97924" lon="6.67728">
        <ele>1010</ele>
        <time>2019-10-01T12:21:06Z</time>
      </trkpt>
      <trkpt lat="43.97917" lon="6.67716">
        <ele>1014</ele>
        <time>2019-10-01T12:21:22Z</time>
      </trkpt>
      <trkpt lat="43.97915" lon="6.67711">
        <ele>1014</ele>
        <time>2019-10-01T12:21:29Z</time>
      </trkpt>
      <trkpt lat="43.97915" lon="6.67705">
        <ele>1014</ele>
        <time>2019-10-01T12:21:35Z</time>
      </trkpt>
      <trkpt lat="43.97916" lon="6.67697">
        <ele>1012</ele>
        <time>2019-10-01T12:21:46Z</time>
      </trkpt>
      <trkpt lat="43.97914" lon="6.67689">
        <ele>992</ele>
        <time>2019-10-01T12:21:56Z</time>
      </trkpt>
      <trkpt lat="43.97912" lon="6.67684">
        <ele>993</ele>
        <time>2019-10-01T12:22:00Z</time>
      </trkpt>
      <trkpt lat="43.97911" lon="6.67676">
        <ele>995</ele>
        <time>2019-10-01T12:22:07Z</time>
      </trkpt>
      <trkpt lat="43.97908" lon="6.67669">
        <ele>997</ele>
        <time>2019-10-01T12:22:18Z</time>
      </trkpt>
      <trkpt lat="43.97906" lon="6.67652">
        <ele>998</ele>
        <time>2019-10-01T12:22:38Z</time>
      </trkpt>
      <trkpt lat="43.97907" lon="6.67643">
        <ele>997</ele>
        <time>2019-10-01T12:22:46Z</time>
      </trkpt>
      <trkpt lat="43.97908" lon="6.67632">
        <ele>949</ele>
        <time>2019-10-01T12:22:53Z</time>
      </trkpt>
      <trkpt lat="43.97907" lon="6.67622">
        <ele>974</ele>
        <time>2019-10-01T12:23:08Z</time>
      </trkpt>
      <trkpt lat="43.97906" lon="6.67613">
        <ele>990</ele>
        <time>2019-10-01T12:23:17Z</time>
      </trkpt>
      <trkpt lat="43.97905" lon="6.67605">
        <ele>966</ele>
        <time>2019-10-01T12:23:22Z</time>
      </trkpt>
      <trkpt lat="43.97905" lon="6.67597">
        <ele>966</ele>
        <time>2019-10-01T12:23:38Z</time>
      </trkpt>
      <trkpt lat="43.97903" lon="6.67589">
        <ele>962</ele>
        <time>2019-10-01T12:24:07Z</time>
      </trkpt>
      <trkpt lat="43.97898" lon="6.67591">
        <ele>965</ele>
        <time>2019-10-01T12:24:29Z</time>
      </trkpt>
      <trkpt lat="43.97894" lon="6.67597">
        <ele>965</ele>
        <time>2019-10-01T12:24:38Z</time>
      </trkpt>
      <trkpt lat="43.97891" lon="6.67592">
        <ele>961</ele>
        <time>2019-10-01T12:25:09Z</time>
      </trkpt>
      <trkpt lat="43.97886" lon="6.67597">
        <ele>971</ele>
        <time>2019-10-01T12:25:37Z</time>
      </trkpt>
      <trkpt lat="43.97881" lon="6.67604">
        <ele>941</ele>
        <time>2019-10-01T12:25:52Z</time>
      </trkpt>
      <trkpt lat="43.97876" lon="6.67606">
        <ele>954</ele>
        <time>2019-10-01T12:26:04Z</time>
      </trkpt>
      <trkpt lat="43.97872" lon="6.67599">
        <ele>964</ele>
        <time>2019-10-01T12:26:34Z</time>
      </trkpt>
      <trkpt lat="43.97866" lon="6.6759">
        <ele>968</ele>
        <time>2019-10-01T12:26:45Z</time>
      </trkpt>
      <trkpt lat="43.97866" lon="6.6758">
        <ele>977</ele>
        <time>2019-10-01T12:27:06Z</time>
      </trkpt>
      <trkpt lat="43.97857" lon="6.67576">
        <ele>946</ele>
        <time>2019-10-01T12:27:24Z</time>
      </trkpt>
      <trkpt lat="43.9785" lon="6.67573">
        <ele>947</ele>
        <time>2019-10-01T12:27:33Z</time>
      </trkpt>
      <trkpt lat="43.97841" lon="6.67571">
        <ele>924</ele>
        <time>2019-10-01T12:27:51Z</time>
      </trkpt>
      <trkpt lat="43.97844" lon="6.67562">
        <ele>919</ele>
        <time>2019-10-01T12:28:04Z</time>
      </trkpt>
      <trkpt lat="43.97835" lon="6.67561">
        <ele>920</ele>
        <time>2019-10-01T12:28:30Z</time>
      </trkpt>
      <trkpt lat="43.97834" lon="6.67553">
        <ele>923</ele>
        <time>2019-10-01T12:28:43Z</time>
      </trkpt>
      <trkpt lat="43.97839" lon="6.6755">
        <ele>929</ele>
        <time>2019-10-01T12:28:51Z</time>
      </trkpt>
      <trkpt lat="43.97834" lon="6.67544">
        <ele>920</ele>
        <time>2019-10-01T12:29:33Z</time>
      </trkpt>
      <trkpt lat="43.97827" lon="6.67538">
        <ele>922</ele>
        <time>2019-10-01T12:29:45Z</time>
      </trkpt>
      <trkpt lat="43.97821" lon="6.67535">
        <ele>907</ele>
        <time>2019-10-01T12:29:58Z</time>
      </trkpt>
      <trkpt lat="43.97819" lon="6.6753">
        <ele>912</ele>
        <time>2019-10-01T12:30:24Z</time>
      </trkpt>
      <trkpt lat="43.97813" lon="6.67524">
        <ele>929</ele>
        <time>2019-10-01T12:30:39Z</time>
      </trkpt>
      <trkpt lat="43.97807" lon="6.67523">
        <ele>933</ele>
        <time>2019-10-01T12:30:44Z</time>
      </trkpt>
      <trkpt lat="43.97813" lon="6.67515">
        <ele>935</ele>
        <time>2019-10-01T12:31:04Z</time>
      </trkpt>
      <trkpt lat="43.97806" lon="6.6751">
        <ele>926</ele>
        <time>2019-10-01T12:31:15Z</time>
      </trkpt>
      <trkpt lat="43.97795" lon="6.67499">
        <ele>908</ele>
        <time>2019-10-01T12:31:49Z</time>
      </trkpt>
      <trkpt lat="43.97788" lon="6.67492">
        <ele>909</ele>
        <time>2019-10-01T12:32:09Z</time>
      </trkpt>
      <trkpt lat="43.9778" lon="6.67487">
        <ele>911</ele>
        <time>2019-10-01T12:32:21Z</time>
      </trkpt>
      <trkpt lat="43.97773" lon="6.67481">
        <ele>918</ele>
        <time>2019-10-01T12:32:28Z</time>
      </trkpt>
      <trkpt lat="43.97768" lon="6.67477">
        <ele>894</ele>
        <time>2019-10-01T12:32:36Z</time>
      </trkpt>
      <trkpt lat="43.97766" lon="6.67468">
        <ele>909</ele>
        <time>2019-10-01T12:32:45Z</time>
      </trkpt>
      <trkpt lat="43.97763" lon="6.67458">
        <ele>885</ele>
        <time>2019-10-01T12:33:12Z</time>
      </trkpt>
      <trkpt lat="43.97759" lon="6.67449">
        <ele>904</ele>
        <time>2019-10-01T12:33:53Z</time>
      </trkpt>
      <trkpt lat="43.97753" lon="6.67441">
        <ele>909</ele>
        <time>2019-10-01T12:34:08Z</time>
      </trkpt>
      <trkpt lat="43.97759" lon="6.67437">
        <ele>905</ele>
        <time>2019-10-01T12:34:34Z</time>
      </trkpt>
      <trkpt lat="43.97763" lon="6.67429">
        <ele>910</ele>
        <time>2019-10-01T12:35:07Z</time>
      </trkpt>
      <trkpt lat="43.9776" lon="6.67422">
        <ele>884</ele>
        <time>2019-10-01T12:35:22Z</time>
      </trkpt>
      <trkpt lat="43.97766" lon="6.67418">
        <ele>880</ele>
        <time>2019-10-01T12:35:51Z</time>
      </trkpt>
      <trkpt lat="43.97761" lon="6.67412">
        <ele>879</ele>
        <time>2019-10-01T12:36:02Z</time>
      </trkpt>
      <trkpt lat="43.97753" lon="6.67408">
        <ele>882</ele>
        <time>2019-10-01T12:36:11Z</time>
      </trkpt>
      <trkpt lat="43.97746" lon="6.67406">
        <ele>887</ele>
        <time>2019-10-01T12:36:23Z</time>
      </trkpt>
      <trkpt lat="43.97744" lon="6.67397">
        <ele>885</ele>
        <time>2019-10-01T12:36:40Z</time>
      </trkpt>
      <trkpt lat="43.97738" lon="6.67391">
        <ele>854</ele>
        <time>2019-10-01T12:36:59Z</time>
      </trkpt>
      <trkpt lat="43.97733" lon="6.67382">
        <ele>852</ele>
        <time>2019-10-01T12:37:14Z</time>
      </trkpt>
      <trkpt lat="43.97727" lon="6.67375">
        <ele>872</ele>
        <time>2019-10-01T12:37:27Z</time>
      </trkpt>
      <trkpt lat="43.97727" lon="6.67365">
        <ele>865</ele>
        <time>2019-10-01T12:37:38Z</time>
      </trkpt>
      <trkpt lat="43.97728" lon="6.67359">
        <ele>877</ele>
        <time>2019-10-01T12:37:45Z</time>
      </trkpt>
      <trkpt lat="43.97725" lon="6.67354">
        <ele>879</ele>
        <time>2019-10-01T12:37:50Z</time>
      </trkpt>
      <trkpt lat="43.97718" lon="6.67345">
        <ele>882</ele>
        <time>2019-10-01T12:38:02Z</time>
      </trkpt>
      <trkpt lat="43.97712" lon="6.67344">
        <ele>881</ele>
        <time>2019-10-01T12:38:11Z</time>
      </trkpt>
      <trkpt lat="43.97708" lon="6.67339">
        <ele>881</ele>
        <time>2019-10-01T12:38:17Z</time>
      </trkpt>
      <trkpt lat="43.97701" lon="6.67333">
        <ele>882</ele>
        <time>2019-10-01T12:38:37Z</time>
      </trkpt>
      <trkpt lat="43.97695" lon="6.67327">
        <ele>880</ele>
        <time>2019-10-01T12:38:46Z</time>
      </trkpt>
      <trkpt lat="43.97689" lon="6.67322">
        <ele>866</ele>
        <time>2019-10-01T12:39:06Z</time>
      </trkpt>
      <trkpt lat="43.97683" lon="6.67317">
        <ele>864</ele>
        <time>2019-10-01T12:39:19Z</time>
      </trkpt>
      <trkpt lat="43.97675" lon="6.67319">
        <ele>862</ele>
        <time>2019-10-01T12:39:44Z</time>
      </trkpt>
      <trkpt lat="43.97666" lon="6.67318">
        <ele>871</ele>
        <time>2019-10-01T12:39:57Z</time>
      </trkpt>
      <trkpt lat="43.97658" lon="6.6732">
        <ele>868</ele>
        <time>2019-10-01T12:40:08Z</time>
      </trkpt>
      <trkpt lat="43.97654" lon="6.67311">
        <ele>840</ele>
        <time>2019-10-01T12:40:33Z</time>
      </trkpt>
      <trkpt lat="43.97654" lon="6.67308">
        <ele>839</ele>
        <time>2019-10-01T12:41:33Z</time>
      </trkpt>
      <trkpt lat="43.97647" lon="6.67295">
        <ele>836</ele>
        <time>2019-10-01T12:41:45Z</time>
      </trkpt>
      <trkpt lat="43.97653" lon="6.67291">
        <ele>842</ele>
        <time>2019-10-01T12:41:53Z</time>
      </trkpt>
      <trkpt lat="43.97663" lon="6.6729">
        <ele>837</ele>
        <time>2019-10-01T12:42:02Z</time>
      </trkpt>
      <trkpt lat="43.97669" lon="6.67283">
        <ele>840</ele>
        <time>2019-10-01T12:42:10Z</time>
      </trkpt>
      <trkpt lat="43.9768" lon="6.67282">
        <ele>833</ele>
        <time>2019-10-01T12:42:30Z</time>
      </trkpt>
      <trkpt lat="43.97682" lon="6.67273">
        <ele>840</ele>
        <time>2019-10-01T12:43:03Z</time>
      </trkpt>
      <trkpt lat="43.97689" lon="6.67269">
        <ele>836</ele>
        <time>2019-10-01T12:43:31Z</time>
      </trkpt>
      <trkpt lat="43.97695" lon="6.67263">
        <ele>842</ele>
        <time>2019-10-01T12:43:40Z</time>
      </trkpt>
      <trkpt lat="43.97693" lon="6.67256">
        <ele>837</ele>
        <time>2019-10-01T12:45:18Z</time>
      </trkpt>
      <trkpt lat="43.97682" lon="6.67248">
        <ele>839</ele>
        <time>2019-10-01T12:45:30Z</time>
      </trkpt>
      <trkpt lat="43.97676" lon="6.6725">
        <ele>838</ele>
        <time>2019-10-01T12:45:38Z</time>
      </trkpt>
      <trkpt lat="43.97671" lon="6.67252">
        <ele>824</ele>
        <time>2019-10-01T12:45:45Z</time>
      </trkpt>
      <trkpt lat="43.97664" lon="6.67253">
        <ele>827</ele>
        <time>2019-10-01T12:46:00Z</time>
      </trkpt>
      <trkpt lat="43.97656" lon="6.67253">
        <ele>824</ele>
        <time>2019-10-01T12:46:09Z</time>
      </trkpt>
      <trkpt lat="43.97649" lon="6.67252">
        <ele>820</ele>
        <time>2019-10-01T12:46:19Z</time>
      </trkpt>
      <trkpt lat="43.97642" lon="6.67247">
        <ele>823</ele>
        <time>2019-10-01T12:46:27Z</time>
      </trkpt>
      <trkpt lat="43.97637" lon="6.67239">
        <ele>815</ele>
        <time>2019-10-01T12:46:37Z</time>
      </trkpt>
      <trkpt lat="43.97631" lon="6.67238">
        <ele>822</ele>
        <time>2019-10-01T12:46:50Z</time>
      </trkpt>
      <trkpt lat="43.97624" lon="6.67235">
        <ele>823</ele>
        <time>2019-10-01T12:47:05Z</time>
      </trkpt>
      <trkpt lat="43.9761" lon="6.67236">
        <ele>814</ele>
        <time>2019-10-01T12:47:35Z</time>
      </trkpt>
      <trkpt lat="43.97605" lon="6.67232">
        <ele>803</ele>
        <time>2019-10-01T12:47:40Z</time>
      </trkpt>
      <trkpt lat="43.97598" lon="6.67232">
        <ele>807</ele>
        <time>2019-10-01T12:47:47Z</time>
      </trkpt>
      <trkpt lat="43.97591" lon="6.67231">
        <ele>807</ele>
        <time>2019-10-01T12:47:54Z</time>
      </trkpt>
      <trkpt lat="43.97584" lon="6.6723">
        <ele>806</ele>
        <time>2019-10-01T12:48:02Z</time>
      </trkpt>
      <trkpt lat="43.97577" lon="6.67228">
        <ele>805</ele>
        <time>2019-10-01T12:48:16Z</time>
      </trkpt>
      <trkpt lat="43.97564" lon="6.67224">
        <ele>796</ele>
        <time>2019-10-01T12:48:29Z</time>
      </trkpt>
      <trkpt lat="43.97558" lon="6.67226">
        <ele>800</ele>
        <time>2019-10-01T12:48:35Z</time>
      </trkpt>
      <trkpt lat="43.9755" lon="6.67222">
        <ele>803</ele>
        <time>2019-10-01T12:48:43Z</time>
      </trkpt>
      <trkpt lat="43.97544" lon="6.67223">
        <ele>805</ele>
        <time>2019-10-01T12:48:49Z</time>
      </trkpt>
      <trkpt lat="43.97538" lon="6.67218">
        <ele>805</ele>
        <time>2019-10-01T12:48:53Z</time>
      </trkpt>
      <trkpt lat="43.97532" lon="6.67217">
        <ele>808</ele>
        <time>2019-10-01T12:48:59Z</time>
      </trkpt>
      <trkpt lat="43.97527" lon="6.67212">
        <ele>808</ele>
        <time>2019-10-01T12:49:04Z</time>
      </trkpt>
      <trkpt lat="43.97512" lon="6.67198">
        <ele>796</ele>
        <time>2019-10-01T12:49:33Z</time>
      </trkpt>
      <trkpt lat="43.97508" lon="6.67186">
        <ele>792</ele>
        <time>2019-10-01T12:49:43Z</time>
      </trkpt>
      <trkpt lat="43.97505" lon="6.67177">
        <ele>795</ele>
        <time>2019-10-01T12:49:58Z</time>
      </trkpt>
      <trkpt lat="43.97498" lon="6.67175">
        <ele>791</ele>
        <time>2019-10-01T12:51:05Z</time>
      </trkpt>
      <trkpt lat="43.97492" lon="6.67174">
        <ele>785</ele>
        <time>2019-10-01T12:51:17Z</time>
      </trkpt>
      <trkpt lat="43.97486" lon="6.67173">
        <ele>785</ele>
        <time>2019-10-01T12:51:26Z</time>
      </trkpt>
      <trkpt lat="43.97462" lon="6.67172">
        <ele>788</ele>
        <time>2019-10-01T12:51:48Z</time>
      </trkpt>
      <trkpt lat="43.9745" lon="6.67165">
        <ele>784</ele>
        <time>2019-10-01T12:52:02Z</time>
      </trkpt>
      <trkpt lat="43.97439" lon="6.67159">
        <ele>782</ele>
        <time>2019-10-01T12:52:33Z</time>
      </trkpt>
      <trkpt lat="43.97432" lon="6.67156">
        <ele>784</ele>
        <time>2019-10-01T12:52:56Z</time>
      </trkpt>
      <trkpt lat="43.97426" lon="6.67152">
        <ele>786</ele>
        <time>2019-10-01T12:53:04Z</time>
      </trkpt>
      <trkpt lat="43.97416" lon="6.6715">
        <ele>783</ele>
        <time>2019-10-01T12:53:19Z</time>
      </trkpt>
      <trkpt lat="43.97408" lon="6.67147">
        <ele>781</ele>
        <time>2019-10-01T13:02:11Z</time>
      </trkpt>
      <trkpt lat="43.97406" lon="6.67138">
        <ele>780</ele>
        <time>2019-10-01T13:02:30Z</time>
      </trkpt>
      <trkpt lat="43.97395" lon="6.67122">
        <ele>770</ele>
        <time>2019-10-01T13:03:00Z</time>
      </trkpt>
      <trkpt lat="43.9739" lon="6.67115">
        <ele>768</ele>
        <time>2019-10-01T13:03:08Z</time>
      </trkpt>
      <trkpt lat="43.97385" lon="6.67108">
        <ele>769</ele>
        <time>2019-10-01T13:03:19Z</time>
      </trkpt>
      <trkpt lat="43.97379" lon="6.67102">
        <ele>768</ele>
        <time>2019-10-01T13:03:31Z</time>
      </trkpt>
      <trkpt lat="43.97373" lon="6.67098">
        <ele>768</ele>
        <time>2019-10-01T13:03:38Z</time>
      </trkpt>
      <trkpt lat="43.97366" lon="6.67098">
        <ele>767</ele>
        <time>2019-10-01T13:04:21Z</time>
      </trkpt>
      <trkpt lat="43.9735" lon="6.67094">
        <ele>768</ele>
        <time>2019-10-01T13:04:37Z</time>
      </trkpt>
      <trkpt lat="43.97341" lon="6.67089">
        <ele>768</ele>
        <time>2019-10-01T13:04:46Z</time>
      </trkpt>
      <trkpt lat="43.97332" lon="6.67083">
        <ele>770</ele>
        <time>2019-10-01T13:04:56Z</time>
      </trkpt>
      <trkpt lat="43.97325" lon="6.67083">
        <ele>765</ele>
        <time>2019-10-01T13:05:13Z</time>
      </trkpt>
      <trkpt lat="43.97324" lon="6.67078">
        <ele>765</ele>
        <time>2019-10-01T13:05:57Z</time>
      </trkpt>
      <trkpt lat="43.9732" lon="6.67076">
        <ele>763</ele>
        <time>2019-10-01T13:06:07Z</time>
      </trkpt>
      <trkpt lat="43.97316" lon="6.67075">
        <ele>763</ele>
        <time>2019-10-01T13:06:33Z</time>
      </trkpt>
      <trkpt lat="43.97312" lon="6.67072">
        <ele>762</ele>
        <time>2019-10-01T13:06:42Z</time>
      </trkpt>
      <trkpt lat="43.97307" lon="6.67073">
        <ele>761</ele>
        <time>2019-10-01T13:06:49Z</time>
      </trkpt>
      <trkpt lat="43.97301" lon="6.67069">
        <ele>760</ele>
        <time>2019-10-01T13:06:56Z</time>
      </trkpt>
      <trkpt lat="43.97305" lon="6.67059">
        <ele>760</ele>
        <time>2019-10-01T13:07:16Z</time>
      </trkpt>
      <trkpt lat="43.9732" lon="6.67054">
        <ele>759</ele>
        <time>2019-10-01T13:07:35Z</time>
      </trkpt>
      <trkpt lat="43.97324" lon="6.67053">
        <ele>756</ele>
        <time>2019-10-01T13:07:46Z</time>
      </trkpt>
      <trkpt lat="43.97328" lon="6.67042">
        <ele>756</ele>
        <time>2019-10-01T13:08:05Z</time>
      </trkpt>
      <trkpt lat="43.97329" lon="6.67036">
        <ele>755</ele>
        <time>2019-10-01T13:08:11Z</time>
      </trkpt>
      <trkpt lat="43.97326" lon="6.67032">
        <ele>752</ele>
        <time>2019-10-01T13:08:18Z</time>
      </trkpt>
      <trkpt lat="43.97323" lon="6.67027">
        <ele>752</ele>
        <time>2019-10-01T13:08:58Z</time>
      </trkpt>
      <trkpt lat="43.97319" lon="6.67019">
        <ele>751</ele>
        <time>2019-10-01T13:09:08Z</time>
      </trkpt>
      <trkpt lat="43.97315" lon="6.67018">
        <ele>746</ele>
        <time>2019-10-01T13:09:23Z</time>
      </trkpt>
      <trkpt lat="43.97312" lon="6.6701">
        <ele>744</ele>
        <time>2019-10-01T13:09:36Z</time>
      </trkpt>
      <trkpt lat="43.97307" lon="6.67003">
        <ele>750</ele>
        <time>2019-10-01T13:09:44Z</time>
      </trkpt>
      <trkpt lat="43.97299" lon="6.67001">
        <ele>751</ele>
        <time>2019-10-01T13:09:57Z</time>
      </trkpt>
      <trkpt lat="43.97277" lon="6.66992">
        <ele>752</ele>
        <time>2019-10-01T13:10:27Z</time>
      </trkpt>
      <trkpt lat="43.97269" lon="6.66992">
        <ele>749</ele>
        <time>2019-10-01T13:10:38Z</time>
      </trkpt>
      <trkpt lat="43.97261" lon="6.66994">
        <ele>748</ele>
        <time>2019-10-01T13:10:44Z</time>
      </trkpt>
      <trkpt lat="43.97254" lon="6.66996">
        <ele>744</ele>
        <time>2019-10-01T13:11:00Z</time>
      </trkpt>
      <trkpt lat="43.97248" lon="6.66996">
        <ele>742</ele>
        <time>2019-10-01T13:11:07Z</time>
      </trkpt>
      <trkpt lat="43.97242" lon="6.66994">
        <ele>742</ele>
        <time>2019-10-01T13:11:24Z</time>
      </trkpt>
      <trkpt lat="43.97234" lon="6.66989">
        <ele>737</ele>
        <time>2019-10-01T13:11:54Z</time>
      </trkpt>
      <trkpt lat="43.97228" lon="6.66987">
        <ele>735</ele>
        <time>2019-10-01T13:12:03Z</time>
      </trkpt>
      <trkpt lat="43.97221" lon="6.66988">
        <ele>735</ele>
        <time>2019-10-01T13:12:16Z</time>
      </trkpt>
      <trkpt lat="43.97214" lon="6.6699">
        <ele>737</ele>
        <time>2019-10-01T13:12:37Z</time>
      </trkpt>
      <trkpt lat="43.97206" lon="6.66991">
        <ele>738</ele>
        <time>2019-10-01T13:12:42Z</time>
      </trkpt>
      <trkpt lat="43.97202" lon="6.66985">
        <ele>739</ele>
        <time>2019-10-01T13:13:17Z</time>
      </trkpt>
      <trkpt lat="43.97192" lon="6.66985">
        <ele>739</ele>
        <time>2019-10-01T13:13:33Z</time>
      </trkpt>
      <trkpt lat="43.97188" lon="6.66981">
        <ele>736</ele>
        <time>2019-10-01T13:13:45Z</time>
      </trkpt>
      <trkpt lat="43.97179" lon="6.66979">
        <ele>736</ele>
        <time>2019-10-01T13:13:57Z</time>
      </trkpt>
      <trkpt lat="43.97167" lon="6.66979">
        <ele>733</ele>
        <time>2019-10-01T13:14:20Z</time>
      </trkpt>
      <trkpt lat="43.97163" lon="6.66977">
        <ele>730</ele>
        <time>2019-10-01T13:14:29Z</time>
      </trkpt>
      <trkpt lat="43.97158" lon="6.66974">
        <ele>729</ele>
        <time>2019-10-01T13:14:36Z</time>
      </trkpt>
      <trkpt lat="43.97148" lon="6.66969">
        <ele>726</ele>
        <time>2019-10-01T13:14:46Z</time>
      </trkpt>
      <trkpt lat="43.97143" lon="6.66965">
        <ele>727</ele>
        <time>2019-10-01T13:15:12Z</time>
      </trkpt>
      <trkpt lat="43.97136" lon="6.66965">
        <ele>728</ele>
        <time>2019-10-01T13:15:30Z</time>
      </trkpt>
      <trkpt lat="43.97132" lon="6.66964">
        <ele>730</ele>
        <time>2019-10-01T13:15:39Z</time>
      </trkpt>
      <trkpt lat="43.97122" lon="6.66964">
        <ele>731</ele>
        <time>2019-10-01T13:15:52Z</time>
      </trkpt>
      <trkpt lat="43.97118" lon="6.6696">
        <ele>732</ele>
        <time>2019-10-01T13:16:02Z</time>
      </trkpt>
      <trkpt lat="43.97114" lon="6.66958">
        <ele>733</ele>
        <time>2019-10-01T13:16:06Z</time>
      </trkpt>
      <trkpt lat="43.97097" lon="6.6693">
        <ele>731</ele>
        <time>2019-10-01T13:16:43Z</time>
      </trkpt>
      <trkpt lat="43.97095" lon="6.66924">
        <ele>729</ele>
        <time>2019-10-01T13:16:56Z</time>
      </trkpt>
      <trkpt lat="43.97086" lon="6.66913">
        <ele>727</ele>
        <time>2019-10-01T13:17:11Z</time>
      </trkpt>
      <trkpt lat="43.97083" lon="6.6691">
        <ele>726</ele>
        <time>2019-10-01T13:17:24Z</time>
      </trkpt>
      <trkpt lat="43.97066" lon="6.66889">
        <ele>725</ele>
        <time>2019-10-01T13:17:55Z</time>
      </trkpt>
      <trkpt lat="43.97063" lon="6.66885">
        <ele>725</ele>
        <time>2019-10-01T13:18:02Z</time>
      </trkpt>
      <trkpt lat="43.97058" lon="6.66884">
        <ele>725</ele>
        <time>2019-10-01T13:18:08Z</time>
      </trkpt>
      <trkpt lat="43.97054" lon="6.66882">
        <ele>724</ele>
        <time>2019-10-01T13:18:14Z</time>
      </trkpt>
      <trkpt lat="43.97034" lon="6.66871">
        <ele>720</ele>
        <time>2019-10-01T13:18:41Z</time>
      </trkpt>
      <trkpt lat="43.97024" lon="6.66872">
        <ele>721</ele>
        <time>2019-10-01T13:18:49Z</time>
      </trkpt>
      <trkpt lat="43.97014" lon="6.66882">
        <ele>721</ele>
        <time>2019-10-01T13:19:19Z</time>
      </trkpt>
      <trkpt lat="43.97009" lon="6.66883">
        <ele>720</ele>
        <time>2019-10-01T13:19:24Z</time>
      </trkpt>
      <trkpt lat="43.97003" lon="6.66874">
        <ele>719</ele>
        <time>2019-10-01T13:19:35Z</time>
      </trkpt>
      <trkpt lat="43.97" lon="6.66869">
        <ele>719</ele>
        <time>2019-10-01T13:19:46Z</time>
      </trkpt>
      <trkpt lat="43.9699" lon="6.66859">
        <ele>722</ele>
        <time>2019-10-01T13:20:20Z</time>
      </trkpt>
      <trkpt lat="43.96972" lon="6.66841">
        <ele>721</ele>
        <time>2019-10-01T13:20:47Z</time>
      </trkpt>
      <trkpt lat="43.96968" lon="6.66837">
        <ele>721</ele>
        <time>2019-10-01T13:20:52Z</time>
      </trkpt>
      <trkpt lat="43.96952" lon="6.6683">
        <ele>719</ele>
        <time>2019-10-01T13:21:17Z</time>
      </trkpt>
      <trkpt lat="43.96942" lon="6.6683">
        <ele>717</ele>
        <time>2019-10-01T13:21:27Z</time>
      </trkpt>
      <trkpt lat="43.9692" lon="6.66831">
        <ele>711</ele>
        <time>2019-10-01T13:21:50Z</time>
      </trkpt>
      <trkpt lat="43.9691" lon="6.66827">
        <ele>711</ele>
        <time>2019-10-01T13:21:59Z</time>
      </trkpt>
      <trkpt lat="43.96902" lon="6.66824">
        <ele>709</ele>
        <time>2019-10-01T13:22:07Z</time>
      </trkpt>
      <trkpt lat="43.96875" lon="6.66811">
        <ele>711</ele>
        <time>2019-10-01T13:22:37Z</time>
      </trkpt>
      <trkpt lat="43.96871" lon="6.66809">
        <ele>710</ele>
        <time>2019-10-01T13:22:41Z</time>
      </trkpt>
      <trkpt lat="43.96868" lon="6.66805">
        <ele>709</ele>
        <time>2019-10-01T13:22:46Z</time>
      </trkpt>
      <trkpt lat="43.9686" lon="6.66799">
        <ele>709</ele>
        <time>2019-10-01T13:22:58Z</time>
      </trkpt>
      <trkpt lat="43.96852" lon="6.66783">
        <ele>711</ele>
        <time>2019-10-01T13:23:12Z</time>
      </trkpt>
      <trkpt lat="43.96842" lon="6.6678">
        <ele>711</ele>
        <time>2019-10-01T13:23:20Z</time>
      </trkpt>
      <trkpt lat="43.96834" lon="6.66781">
        <ele>710</ele>
        <time>2019-10-01T13:23:29Z</time>
      </trkpt>
      <trkpt lat="43.96829" lon="6.66779">
        <ele>710</ele>
        <time>2019-10-01T13:23:34Z</time>
      </trkpt>
      <trkpt lat="43.96827" lon="6.6678">
        <ele>710</ele>
        <time>2019-10-01T13:23:49Z</time>
      </trkpt>
      <trkpt lat="43.96815" lon="6.6678">
        <ele>712</ele>
        <time>2019-10-01T13:24:25Z</time>
      </trkpt>
      <trkpt lat="43.968" lon="6.6678">
        <ele>713</ele>
        <time>2019-10-01T13:24:30Z</time>
      </trkpt>
      <trkpt lat="43.96782" lon="6.66773">
        <ele>715</ele>
        <time>2019-10-01T13:24:35Z</time>
      </trkpt>
      <trkpt lat="43.96777" lon="6.66761">
        <ele>716</ele>
        <time>2019-10-01T13:24:41Z</time>
      </trkpt>
      <trkpt lat="43.9677" lon="6.66759">
        <ele>717</ele>
        <time>2019-10-01T13:24:48Z</time>
      </trkpt>
      <trkpt lat="43.96765" lon="6.66763">
        <ele>716</ele>
        <time>2019-10-01T13:24:53Z</time>
      </trkpt>
      <trkpt lat="43.96763" lon="6.66769">
        <ele>714</ele>
        <time>2019-10-01T13:25:00Z</time>
      </trkpt>
      <trkpt lat="43.96758" lon="6.66767">
        <ele>712</ele>
        <time>2019-10-01T13:25:10Z</time>
      </trkpt>
      <trkpt lat="43.96753" lon="6.66771">
        <ele>710</ele>
        <time>2019-10-01T13:25:15Z</time>
      </trkpt>
      <trkpt lat="43.96748" lon="6.66775">
        <ele>710</ele>
        <time>2019-10-01T13:25:20Z</time>
      </trkpt>
      <trkpt lat="43.96736" lon="6.66779">
        <ele>711</ele>
        <time>2019-10-01T13:25:31Z</time>
      </trkpt>
      <trkpt lat="43.96721" lon="6.66765">
        <ele>710</ele>
        <time>2019-10-01T13:25:46Z</time>
      </trkpt>
      <trkpt lat="43.96701" lon="6.66785">
        <ele>703</ele>
        <time>2019-10-01T13:26:10Z</time>
      </trkpt>
      <trkpt lat="43.9669" lon="6.66784">
        <ele>701</ele>
        <time>2019-10-01T13:26:30Z</time>
      </trkpt>
      <trkpt lat="43.96686" lon="6.6679">
        <ele>701</ele>
        <time>2019-10-01T13:26:38Z</time>
      </trkpt>
      <trkpt lat="43.96682" lon="6.66794">
        <ele>701</ele>
        <time>2019-10-01T13:26:42Z</time>
      </trkpt>
      <trkpt lat="43.96677" lon="6.66812">
        <ele>701</ele>
        <time>2019-10-01T13:27:01Z</time>
      </trkpt>
      <trkpt lat="43.96678" lon="6.66822">
        <ele>700</ele>
        <time>2019-10-01T13:27:13Z</time>
      </trkpt>
      <trkpt lat="43.96678" lon="6.66828">
        <ele>698</ele>
        <time>2019-10-01T13:27:17Z</time>
      </trkpt>
      <trkpt lat="43.96675" lon="6.66835">
        <ele>699</ele>
        <time>2019-10-01T13:27:22Z</time>
      </trkpt>
      <trkpt lat="43.96668" lon="6.6684">
        <ele>697</ele>
        <time>2019-10-01T13:27:30Z</time>
      </trkpt>
      <trkpt lat="43.96664" lon="6.66843">
        <ele>695</ele>
        <time>2019-10-01T13:27:36Z</time>
      </trkpt>
      <trkpt lat="43.96661" lon="6.66847">
        <ele>695</ele>
        <time>2019-10-01T13:27:41Z</time>
      </trkpt>
      <trkpt lat="43.96654" lon="6.66851">
        <ele>705</ele>
        <time>2019-10-01T13:27:52Z</time>
      </trkpt>
      <trkpt lat="43.9665" lon="6.66843">
        <ele>707</ele>
        <time>2019-10-01T13:28:02Z</time>
      </trkpt>
      <trkpt lat="43.96639" lon="6.66834">
        <ele>695</ele>
        <time>2019-10-01T13:28:16Z</time>
      </trkpt>
      <trkpt lat="43.96634" lon="6.66833">
        <ele>696</ele>
        <time>2019-10-01T13:28:20Z</time>
      </trkpt>
      <trkpt lat="43.96631" lon="6.66825">
        <ele>697</ele>
        <time>2019-10-01T13:28:29Z</time>
      </trkpt>
      <trkpt lat="43.96626" lon="6.66821">
        <ele>706</ele>
        <time>2019-10-01T13:28:32Z</time>
      </trkpt>
      <trkpt lat="43.9662" lon="6.66816">
        <ele>705</ele>
        <time>2019-10-01T13:28:36Z</time>
      </trkpt>
      <trkpt lat="43.96616" lon="6.66814">
        <ele>702</ele>
        <time>2019-10-01T13:28:39Z</time>
      </trkpt>
      <trkpt lat="43.96617" lon="6.66808">
        <ele>698</ele>
        <time>2019-10-01T13:28:48Z</time>
      </trkpt>
      <trkpt lat="43.96616" lon="6.6679">
        <ele>693</ele>
        <time>2019-10-01T13:29:10Z</time>
      </trkpt>
      <trkpt lat="43.96616" lon="6.66784">
        <ele>691</ele>
        <time>2019-10-01T13:29:14Z</time>
      </trkpt>
      <trkpt lat="43.96616" lon="6.66778">
        <ele>692</ele>
        <time>2019-10-01T13:29:17Z</time>
      </trkpt>
      <trkpt lat="43.96614" lon="6.66773">
        <ele>694</ele>
        <time>2019-10-01T13:29:20Z</time>
      </trkpt>
      <trkpt lat="43.96614" lon="6.66767">
        <ele>696</ele>
        <time>2019-10-01T13:29:23Z</time>
      </trkpt>
      <trkpt lat="43.96617" lon="6.66761">
        <ele>699</ele>
        <time>2019-10-01T13:29:27Z</time>
      </trkpt>
      <trkpt lat="43.96618" lon="6.66755">
        <ele>700</ele>
        <time>2019-10-01T13:29:32Z</time>
      </trkpt>
      <trkpt lat="43.96623" lon="6.66734">
        <ele>701</ele>
        <time>2019-10-01T13:29:44Z</time>
      </trkpt>
      <trkpt lat="43.96625" lon="6.66728">
        <ele>702</ele>
        <time>2019-10-01T13:29:48Z</time>
      </trkpt>
      <trkpt lat="43.96629" lon="6.66724">
        <ele>701</ele>
        <time>2019-10-01T13:29:53Z</time>
      </trkpt>
      <trkpt lat="43.96636" lon="6.66717">
        <ele>699</ele>
        <time>2019-10-01T13:30:02Z</time>
      </trkpt>
      <trkpt lat="43.9664" lon="6.66715">
        <ele>697</ele>
        <time>2019-10-01T13:30:08Z</time>
      </trkpt>
      <trkpt lat="43.96642" lon="6.66709">
        <ele>698</ele>
        <time>2019-10-01T13:31:32Z</time>
      </trkpt>
      <trkpt lat="43.96644" lon="6.66715">
        <ele>698</ele>
        <time>2019-10-01T13:32:01Z</time>
      </trkpt>
      <trkpt lat="43.96635" lon="6.66721">
        <ele>699</ele>
        <time>2019-10-01T13:32:15Z</time>
      </trkpt>
      <trkpt lat="43.96627" lon="6.66722">
        <ele>700</ele>
        <time>2019-10-01T13:32:22Z</time>
      </trkpt>
      <trkpt lat="43.96622" lon="6.66726">
        <ele>702</ele>
        <time>2019-10-01T13:32:27Z</time>
      </trkpt>
      <trkpt lat="43.96616" lon="6.66733">
        <ele>713</ele>
        <time>2019-10-01T13:32:34Z</time>
      </trkpt>
      <trkpt lat="43.96614" lon="6.66738">
        <ele>709</ele>
        <time>2019-10-01T13:32:38Z</time>
      </trkpt>
      <trkpt lat="43.96606" lon="6.66755">
        <ele>700</ele>
        <time>2019-10-01T13:32:50Z</time>
      </trkpt>
      <trkpt lat="43.96606" lon="6.66761">
        <ele>697</ele>
        <time>2019-10-01T13:32:55Z</time>
      </trkpt>
      <trkpt lat="43.96602" lon="6.66764">
        <ele>692</ele>
        <time>2019-10-01T13:33:00Z</time>
      </trkpt>
      <trkpt lat="43.96596" lon="6.66764">
        <ele>691</ele>
        <time>2019-10-01T13:33:04Z</time>
      </trkpt>
      <trkpt lat="43.96592" lon="6.66763">
        <ele>691</ele>
        <time>2019-10-01T13:33:15Z</time>
      </trkpt>
      <trkpt lat="43.96593" lon="6.66771">
        <ele>690</ele>
        <time>2019-10-01T13:33:45Z</time>
      </trkpt>
      <trkpt lat="43.96593" lon="6.6677">
        <ele>690</ele>
        <time>2019-10-01T13:38:10Z</time>
      </trkpt>
      <trkpt lat="43.96598" lon="6.6677">
        <ele>703</ele>
        <time>2019-10-01T13:40:55Z</time>
      </trkpt>
      <trkpt lat="43.96597" lon="6.66772">
        <ele>695</ele>
        <time>2019-10-01T13:46:22Z</time>
      </trkpt>
      <trkpt lat="43.96593" lon="6.6677">
        <ele>695</ele>
        <time>2019-10-01T13:47:11Z</time>
      </trkpt>
      <trkpt lat="43.96593" lon="6.66769">
        <ele>698</ele>
        <time>2019-10-01T14:24:08Z</time>
      </trkpt>
      <trkpt lat="43.96599" lon="6.66765">
        <ele>698</ele>
        <time>2019-10-01T14:25:09Z</time>
      </trkpt>
      <trkpt lat="43.96603" lon="6.66768">
        <ele>698</ele>
        <time>2019-10-01T14:25:21Z</time>
      </trkpt>
      <trkpt lat="43.96607" lon="6.66775">
        <ele>698</ele>
        <time>2019-10-01T14:25:56Z</time>
      </trkpt>
      <trkpt lat="43.96616" lon="6.66777">
        <ele>696</ele>
        <time>2019-10-01T14:26:09Z</time>
      </trkpt>
      <trkpt lat="43.96621" lon="6.66795">
        <ele>706</ele>
        <time>2019-10-01T14:27:47Z</time>
      </trkpt>
      <trkpt lat="43.96622" lon="6.66807">
        <ele>696</ele>
        <time>2019-10-01T14:27:55Z</time>
      </trkpt>
      <trkpt lat="43.96618" lon="6.66814">
        <ele>691</ele>
        <time>2019-10-01T14:28:01Z</time>
      </trkpt>
      <trkpt lat="43.9661" lon="6.6682">
        <ele>690</ele>
        <time>2019-10-01T14:28:19Z</time>
      </trkpt>
      <trkpt lat="43.96606" lon="6.66822">
        <ele>692</ele>
        <time>2019-10-01T14:28:28Z</time>
      </trkpt>
      <trkpt lat="43.96591" lon="6.66822">
        <ele>694</ele>
        <time>2019-10-01T14:28:38Z</time>
      </trkpt>
      <trkpt lat="43.96579" lon="6.66825">
        <ele>692</ele>
        <time>2019-10-01T14:28:51Z</time>
      </trkpt>
      <trkpt lat="43.96572" lon="6.66825">
        <ele>699</ele>
        <time>2019-10-01T14:28:56Z</time>
      </trkpt>
      <trkpt lat="43.96567" lon="6.66825">
        <ele>701</ele>
        <time>2019-10-01T14:29:02Z</time>
      </trkpt>
      <trkpt lat="43.96561" lon="6.66826">
        <ele>702</ele>
        <time>2019-10-01T14:29:12Z</time>
      </trkpt>
      <trkpt lat="43.96555" lon="6.66832">
        <ele>693</ele>
        <time>2019-10-01T14:29:18Z</time>
      </trkpt>
      <trkpt lat="43.96543" lon="6.66837">
        <ele>690</ele>
        <time>2019-10-01T14:29:31Z</time>
      </trkpt>
      <trkpt lat="43.9654" lon="6.66844">
        <ele>692</ele>
        <time>2019-10-01T14:29:36Z</time>
      </trkpt>
      <trkpt lat="43.96538" lon="6.66861">
        <ele>692</ele>
        <time>2019-10-01T14:29:49Z</time>
      </trkpt>
      <trkpt lat="43.9654" lon="6.66877">
        <ele>691</ele>
        <time>2019-10-01T14:29:57Z</time>
      </trkpt>
      <trkpt lat="43.96539" lon="6.66886">
        <ele>705</ele>
        <time>2019-10-01T14:30:01Z</time>
      </trkpt>
      <trkpt lat="43.96541" lon="6.66893">
        <ele>696</ele>
        <time>2019-10-01T14:30:07Z</time>
      </trkpt>
      <trkpt lat="43.96544" lon="6.66901">
        <ele>690</ele>
        <time>2019-10-01T14:30:17Z</time>
      </trkpt>
      <trkpt lat="43.96543" lon="6.6691">
        <ele>690</ele>
        <time>2019-10-01T14:30:23Z</time>
      </trkpt>
      <trkpt lat="43.96538" lon="6.66921">
        <ele>697</ele>
        <time>2019-10-01T14:30:29Z</time>
      </trkpt>
      <trkpt lat="43.96536" lon="6.66929">
        <ele>703</ele>
        <time>2019-10-01T14:30:33Z</time>
      </trkpt>
      <trkpt lat="43.96533" lon="6.66935">
        <ele>700</ele>
        <time>2019-10-01T14:30:37Z</time>
      </trkpt>
      <trkpt lat="43.96537" lon="6.66943">
        <ele>697</ele>
        <time>2019-10-01T14:30:42Z</time>
      </trkpt>
    </trkseg>
  </trk>
</gpx>